<?xml version="1.0" encoding="UTF-8" standalone="no" ?>
<gpx xmlns="http://www.topografix.com/GPX/1/1" xmlns:xsi="http://www.w3.org/2001/XMLSchema-instance" xsi:schemaLocation="http://www.topografix.com/GPX/1/1 http://www.topografix.com/GPX/1/1/gpx.xsd" version="1.1" creator="VisuGPX - https://www.visugpx.com">
  <metadata>
    <name>6/18 Chanaz / Les Malods (Yenne)</name>
    <desc><![CDATA[File with points/tracks from Locus Map Classic/3.60.0]]></desc>
  </metadata>
  <trk>
    <name><![CDATA[Chanaz / Les Malods (Yenne)]]></name>
    <extensions>
      <line xmlns="http://www.topografix.com/GPX/gpx_style/0/2">
        <color>0000FF</color>
        <opacity>0.59</opacity>
        <width>4.0</width>
      </line>
    </extensions>
    <trkseg>
      <trkpt lat="45.79692" lon="5.79574">
        <ele>385.76</ele>
        <time>2022-04-27T07:06:36.000Z</time>
      </trkpt>
      <trkpt lat="45.79697" lon="5.79542">
        <ele>371.83</ele>
        <time>2022-04-27T07:07:50.000Z</time>
      </trkpt>
      <trkpt lat="45.79702" lon="5.79509">
        <ele>372.96</ele>
        <time>2022-04-27T07:08:13.000Z</time>
      </trkpt>
      <trkpt lat="45.7971" lon="5.79479">
        <ele>373.42</ele>
        <time>2022-04-27T07:08:32.687Z</time>
      </trkpt>
      <trkpt lat="45.79729" lon="5.79459">
        <ele>372.94</ele>
        <time>2022-04-27T07:08:56.367Z</time>
      </trkpt>
      <trkpt lat="45.79752" lon="5.7945">
        <ele>380.61</ele>
        <time>2022-04-27T07:09:20.246Z</time>
      </trkpt>
      <trkpt lat="45.79772" lon="5.79434">
        <ele>378.7</ele>
        <time>2022-04-27T07:09:43.924Z</time>
      </trkpt>
      <trkpt lat="45.79773" lon="5.79402">
        <ele>384.59</ele>
        <time>2022-04-27T07:10:06.123Z</time>
      </trkpt>
      <trkpt lat="45.79773" lon="5.79368">
        <ele>388.49</ele>
        <time>2022-04-27T07:10:30.801Z</time>
      </trkpt>
      <trkpt lat="45.79775" lon="5.79335">
        <ele>389.62</ele>
        <time>2022-04-27T07:10:59.262Z</time>
      </trkpt>
      <trkpt lat="45.79777" lon="5.793">
        <ele>392.28</ele>
        <time>2022-04-27T07:11:24.306Z</time>
      </trkpt>
      <trkpt lat="45.79777" lon="5.79268">
        <ele>394.5</ele>
        <time>2022-04-27T07:11:48.000Z</time>
      </trkpt>
      <trkpt lat="45.79764" lon="5.79241">
        <ele>396.92</ele>
        <time>2022-04-27T07:12:09.000Z</time>
      </trkpt>
      <trkpt lat="45.79751" lon="5.79214">
        <ele>401.14</ele>
        <time>2022-04-27T07:12:31.048Z</time>
      </trkpt>
      <trkpt lat="45.79749" lon="5.79181">
        <ele>400.82</ele>
        <time>2022-04-27T07:13:08.347Z</time>
      </trkpt>
      <trkpt lat="45.79747" lon="5.79149">
        <ele>401.47</ele>
        <time>2022-04-27T07:13:29.883Z</time>
      </trkpt>
      <trkpt lat="45.79727" lon="5.79133">
        <ele>401.35</ele>
        <time>2022-04-27T07:13:52.322Z</time>
      </trkpt>
      <trkpt lat="45.79706" lon="5.79146">
        <ele>400.25</ele>
        <time>2022-04-27T07:14:12.708Z</time>
      </trkpt>
      <trkpt lat="45.79684" lon="5.79136">
        <ele>400.25</ele>
        <time>2022-04-27T07:14:34.354Z</time>
      </trkpt>
      <trkpt lat="45.79663" lon="5.79124">
        <ele>400.25</ele>
        <time>2022-04-27T07:14:55.366Z</time>
      </trkpt>
      <trkpt lat="45.7964" lon="5.79117">
        <ele>400.25</ele>
        <time>2022-04-27T07:15:15.049Z</time>
      </trkpt>
      <trkpt lat="45.79618" lon="5.79116">
        <ele>411.2</ele>
        <time>2022-04-27T07:15:33.829Z</time>
      </trkpt>
      <trkpt lat="45.79595" lon="5.79116">
        <ele>412.4</ele>
        <time>2022-04-27T07:15:52.148Z</time>
      </trkpt>
      <trkpt lat="45.79572" lon="5.79118">
        <ele>414.16</ele>
        <time>2022-04-27T07:16:10.322Z</time>
      </trkpt>
      <trkpt lat="45.79549" lon="5.79113">
        <ele>418.95</ele>
        <time>2022-04-27T07:17:01.062Z</time>
      </trkpt>
      <trkpt lat="45.79529" lon="5.79097">
        <ele>413.43</ele>
        <time>2022-04-27T07:17:27.061Z</time>
      </trkpt>
      <trkpt lat="45.79511" lon="5.79078">
        <ele>412.52</ele>
        <time>2022-04-27T07:20:53.170Z</time>
      </trkpt>
      <trkpt lat="45.7949" lon="5.79065">
        <ele>411.51</ele>
        <time>2022-04-27T07:21:18.389Z</time>
      </trkpt>
      <trkpt lat="45.79471" lon="5.79046">
        <ele>409.83</ele>
        <time>2022-04-27T07:21:37.149Z</time>
      </trkpt>
      <trkpt lat="45.79452" lon="5.7903">
        <ele>409.32</ele>
        <time>2022-04-27T07:21:52.624Z</time>
      </trkpt>
      <trkpt lat="45.79431" lon="5.79017">
        <ele>406.67</ele>
        <time>2022-04-27T07:22:10.088Z</time>
      </trkpt>
      <trkpt lat="45.79409" lon="5.79006">
        <ele>407.53</ele>
        <time>2022-04-27T07:22:26.000Z</time>
      </trkpt>
      <trkpt lat="45.79389" lon="5.7899">
        <ele>406.52</ele>
        <time>2022-04-27T07:22:43.691Z</time>
      </trkpt>
      <trkpt lat="45.79366" lon="5.78981">
        <ele>406.35</ele>
        <time>2022-04-27T07:34:04.062Z</time>
      </trkpt>
      <trkpt lat="45.79343" lon="5.78976">
        <ele>407.08</ele>
        <time>2022-04-27T07:34:24.281Z</time>
      </trkpt>
      <trkpt lat="45.7932" lon="5.78977">
        <ele>408.05</ele>
        <time>2022-04-27T07:34:45.182Z</time>
      </trkpt>
      <trkpt lat="45.79297" lon="5.78973">
        <ele>407.69</ele>
        <time>2022-04-27T07:35:05.967Z</time>
      </trkpt>
      <trkpt lat="45.79275" lon="5.78971">
        <ele>408.98</ele>
        <time>2022-04-27T07:35:24.167Z</time>
      </trkpt>
      <trkpt lat="45.79251" lon="5.78965">
        <ele>409.16</ele>
        <time>2022-04-27T07:35:44.000Z</time>
      </trkpt>
      <trkpt lat="45.79228" lon="5.78964">
        <ele>409.63</ele>
        <time>2022-04-27T07:36:04.000Z</time>
      </trkpt>
      <trkpt lat="45.79205" lon="5.78968">
        <ele>405.99</ele>
        <time>2022-04-27T07:36:22.988Z</time>
      </trkpt>
      <trkpt lat="45.79181" lon="5.7897">
        <ele>407.28</ele>
        <time>2022-04-27T07:36:41.948Z</time>
      </trkpt>
      <trkpt lat="45.79159" lon="5.78969">
        <ele>408.76</ele>
        <time>2022-04-27T07:37:01.226Z</time>
      </trkpt>
      <trkpt lat="45.79136" lon="5.78963">
        <ele>405.52</ele>
        <time>2022-04-27T07:37:19.149Z</time>
      </trkpt>
      <trkpt lat="45.79114" lon="5.78962">
        <ele>405.93</ele>
        <time>2022-04-27T07:37:38.321Z</time>
      </trkpt>
      <trkpt lat="45.79091" lon="5.78955">
        <ele>404.6</ele>
        <time>2022-04-27T07:37:58.289Z</time>
      </trkpt>
      <trkpt lat="45.79068" lon="5.7895">
        <ele>404.67</ele>
        <time>2022-04-27T07:38:20.026Z</time>
      </trkpt>
      <trkpt lat="45.79045" lon="5.78952">
        <ele>407.47</ele>
        <time>2022-04-27T07:38:43.260Z</time>
      </trkpt>
      <trkpt lat="45.79022" lon="5.78958">
        <ele>410.46</ele>
        <time>2022-04-27T07:39:07.148Z</time>
      </trkpt>
      <trkpt lat="45.78999" lon="5.78968">
        <ele>411.73</ele>
        <time>2022-04-27T07:39:29.346Z</time>
      </trkpt>
      <trkpt lat="45.78977" lon="5.78975">
        <ele>411.18</ele>
        <time>2022-04-27T07:39:57.287Z</time>
      </trkpt>
      <trkpt lat="45.78955" lon="5.78968">
        <ele>415.97</ele>
        <time>2022-04-27T07:40:19.101Z</time>
      </trkpt>
      <trkpt lat="45.78933" lon="5.7896">
        <ele>418.27</ele>
        <time>2022-04-27T07:40:40.346Z</time>
      </trkpt>
      <trkpt lat="45.7891" lon="5.78954">
        <ele>419.88</ele>
        <time>2022-04-27T07:41:01.863Z</time>
      </trkpt>
      <trkpt lat="45.78888" lon="5.78944">
        <ele>422.35</ele>
        <time>2022-04-27T07:41:23.147Z</time>
      </trkpt>
      <trkpt lat="45.78866" lon="5.78931">
        <ele>423.41</ele>
        <time>2022-04-27T07:41:44.240Z</time>
      </trkpt>
      <trkpt lat="45.78844" lon="5.78921">
        <ele>426.86</ele>
        <time>2022-04-27T07:42:05.229Z</time>
      </trkpt>
      <trkpt lat="45.78822" lon="5.78913">
        <ele>428.8</ele>
        <time>2022-04-27T07:42:26.802Z</time>
      </trkpt>
      <trkpt lat="45.78799" lon="5.78903">
        <ele>428.65</ele>
        <time>2022-04-27T07:42:47.203Z</time>
      </trkpt>
      <trkpt lat="45.78777" lon="5.78896">
        <ele>430.04</ele>
        <time>2022-04-27T07:43:06.000Z</time>
      </trkpt>
      <trkpt lat="45.78755" lon="5.78891">
        <ele>430.33</ele>
        <time>2022-04-27T07:43:27.382Z</time>
      </trkpt>
      <trkpt lat="45.78731" lon="5.78889">
        <ele>430.74</ele>
        <time>2022-04-27T07:43:47.381Z</time>
      </trkpt>
      <trkpt lat="45.78708" lon="5.78891">
        <ele>429.88</ele>
        <time>2022-04-27T07:44:07.984Z</time>
      </trkpt>
      <trkpt lat="45.78685" lon="5.78893">
        <ele>428.95</ele>
        <time>2022-04-27T07:44:25.667Z</time>
      </trkpt>
      <trkpt lat="45.78661" lon="5.78894">
        <ele>429.06</ele>
        <time>2022-04-27T07:44:45.186Z</time>
      </trkpt>
      <trkpt lat="45.78638" lon="5.78897">
        <ele>431.32</ele>
        <time>2022-04-27T07:45:04.336Z</time>
      </trkpt>
      <trkpt lat="45.78615" lon="5.78897">
        <ele>429.43</ele>
        <time>2022-04-27T07:45:22.088Z</time>
      </trkpt>
      <trkpt lat="45.78593" lon="5.7889">
        <ele>430.6</ele>
        <time>2022-04-27T07:45:39.282Z</time>
      </trkpt>
      <trkpt lat="45.7857" lon="5.78883">
        <ele>432.31</ele>
        <time>2022-04-27T07:45:56.284Z</time>
      </trkpt>
      <trkpt lat="45.78547" lon="5.78878">
        <ele>432.39</ele>
        <time>2022-04-27T07:46:15.343Z</time>
      </trkpt>
      <trkpt lat="45.78525" lon="5.78874">
        <ele>429.98</ele>
        <time>2022-04-27T07:46:33.947Z</time>
      </trkpt>
      <trkpt lat="45.78502" lon="5.78871">
        <ele>431.12</ele>
        <time>2022-04-27T07:46:52.101Z</time>
      </trkpt>
      <trkpt lat="45.7848" lon="5.78866">
        <ele>433.41</ele>
        <time>2022-04-27T07:47:09.707Z</time>
      </trkpt>
      <trkpt lat="45.78457" lon="5.78859">
        <ele>434.87</ele>
        <time>2022-04-27T07:47:29.063Z</time>
      </trkpt>
      <trkpt lat="45.78435" lon="5.78852">
        <ele>435.51</ele>
        <time>2022-04-27T07:47:47.226Z</time>
      </trkpt>
      <trkpt lat="45.78413" lon="5.78844">
        <ele>435.64</ele>
        <time>2022-04-27T07:48:04.746Z</time>
      </trkpt>
      <trkpt lat="45.78391" lon="5.78839">
        <ele>436.34</ele>
        <time>2022-04-27T07:48:22.804Z</time>
      </trkpt>
      <trkpt lat="45.78368" lon="5.78833">
        <ele>436.37</ele>
        <time>2022-04-27T07:48:41.487Z</time>
      </trkpt>
      <trkpt lat="45.78346" lon="5.78831">
        <ele>436.94</ele>
        <time>2022-04-27T07:49:00.188Z</time>
      </trkpt>
      <trkpt lat="45.78323" lon="5.78825">
        <ele>437.64</ele>
        <time>2022-04-27T07:49:18.000Z</time>
      </trkpt>
      <trkpt lat="45.783" lon="5.78817">
        <ele>436</ele>
        <time>2022-04-27T07:49:37.284Z</time>
      </trkpt>
      <trkpt lat="45.78278" lon="5.78809">
        <ele>438.62</ele>
        <time>2022-04-27T07:49:55.303Z</time>
      </trkpt>
      <trkpt lat="45.78255" lon="5.78803">
        <ele>442.19</ele>
        <time>2022-04-27T07:50:12.968Z</time>
      </trkpt>
      <trkpt lat="45.78233" lon="5.78798">
        <ele>442.7</ele>
        <time>2022-04-27T07:50:31.266Z</time>
      </trkpt>
      <trkpt lat="45.7821" lon="5.78795">
        <ele>441.04</ele>
        <time>2022-04-27T07:52:07.908Z</time>
      </trkpt>
      <trkpt lat="45.78186" lon="5.78792">
        <ele>440.48</ele>
        <time>2022-04-27T07:52:26.128Z</time>
      </trkpt>
      <trkpt lat="45.78163" lon="5.78791">
        <ele>440.33</ele>
        <time>2022-04-27T07:52:44.345Z</time>
      </trkpt>
      <trkpt lat="45.78139" lon="5.78786">
        <ele>438.68</ele>
        <time>2022-04-27T07:53:02.947Z</time>
      </trkpt>
      <trkpt lat="45.78116" lon="5.78782">
        <ele>437.94</ele>
        <time>2022-04-27T07:53:21.044Z</time>
      </trkpt>
      <trkpt lat="45.78094" lon="5.78775">
        <ele>437.04</ele>
        <time>2022-04-27T07:53:38.266Z</time>
      </trkpt>
      <trkpt lat="45.78072" lon="5.78769">
        <ele>435.42</ele>
        <time>2022-04-27T07:53:55.949Z</time>
      </trkpt>
      <trkpt lat="45.78049" lon="5.7877">
        <ele>434.93</ele>
        <time>2022-04-27T07:54:13.748Z</time>
      </trkpt>
      <trkpt lat="45.78026" lon="5.78771">
        <ele>433.78</ele>
        <time>2022-04-27T07:54:31.028Z</time>
      </trkpt>
      <trkpt lat="45.78004" lon="5.78773">
        <ele>433.81</ele>
        <time>2022-04-27T07:54:49.308Z</time>
      </trkpt>
      <trkpt lat="45.7798" lon="5.7878">
        <ele>433.27</ele>
        <time>2022-04-27T07:55:08.000Z</time>
      </trkpt>
      <trkpt lat="45.77957" lon="5.78786">
        <ele>433.62</ele>
        <time>2022-04-27T07:55:27.164Z</time>
      </trkpt>
      <trkpt lat="45.77935" lon="5.78786">
        <ele>431.27</ele>
        <time>2022-04-27T07:55:45.185Z</time>
      </trkpt>
      <trkpt lat="45.77912" lon="5.78786">
        <ele>430.6</ele>
        <time>2022-04-27T07:56:03.261Z</time>
      </trkpt>
      <trkpt lat="45.77889" lon="5.78786">
        <ele>428.9</ele>
        <time>2022-04-27T07:56:21.867Z</time>
      </trkpt>
      <trkpt lat="45.77866" lon="5.78788">
        <ele>427.39</ele>
        <time>2022-04-27T07:56:39.743Z</time>
      </trkpt>
      <trkpt lat="45.77843" lon="5.78789">
        <ele>427.69</ele>
        <time>2022-04-27T07:56:57.687Z</time>
      </trkpt>
      <trkpt lat="45.7782" lon="5.78785">
        <ele>425.34</ele>
        <time>2022-04-27T07:57:16.187Z</time>
      </trkpt>
      <trkpt lat="45.77798" lon="5.7878">
        <ele>422.38</ele>
        <time>2022-04-27T07:57:35.947Z</time>
      </trkpt>
      <trkpt lat="45.77775" lon="5.7878">
        <ele>421.01</ele>
        <time>2022-04-27T07:57:55.368Z</time>
      </trkpt>
      <trkpt lat="45.77752" lon="5.7878">
        <ele>418.65</ele>
        <time>2022-04-27T07:58:13.628Z</time>
      </trkpt>
      <trkpt lat="45.77729" lon="5.78782">
        <ele>417.1</ele>
        <time>2022-04-27T07:58:33.128Z</time>
      </trkpt>
      <trkpt lat="45.77706" lon="5.78782">
        <ele>414.75</ele>
        <time>2022-04-27T07:58:52.243Z</time>
      </trkpt>
      <trkpt lat="45.77683" lon="5.78783">
        <ele>415.01</ele>
        <time>2022-04-27T07:59:10.944Z</time>
      </trkpt>
      <trkpt lat="45.77661" lon="5.78783">
        <ele>413.17</ele>
        <time>2022-04-27T07:59:30.589Z</time>
      </trkpt>
      <trkpt lat="45.77638" lon="5.78788">
        <ele>409.76</ele>
        <time>2022-04-27T07:59:50.049Z</time>
      </trkpt>
      <trkpt lat="45.77615" lon="5.7879">
        <ele>404.21</ele>
        <time>2022-04-27T08:00:10.165Z</time>
      </trkpt>
      <trkpt lat="45.77593" lon="5.78791">
        <ele>400.26</ele>
        <time>2022-04-27T08:00:29.306Z</time>
      </trkpt>
      <trkpt lat="45.7757" lon="5.78797">
        <ele>402.94</ele>
        <time>2022-04-27T08:00:49.286Z</time>
      </trkpt>
      <trkpt lat="45.77547" lon="5.78801">
        <ele>399.05</ele>
        <time>2022-04-27T08:01:09.267Z</time>
      </trkpt>
      <trkpt lat="45.77524" lon="5.78804">
        <ele>394.69</ele>
        <time>2022-04-27T08:01:28.000Z</time>
      </trkpt>
      <trkpt lat="45.77501" lon="5.78808">
        <ele>399.07</ele>
        <time>2022-04-27T08:02:26.046Z</time>
      </trkpt>
      <trkpt lat="45.77478" lon="5.78815">
        <ele>394.77</ele>
        <time>2022-04-27T08:02:45.382Z</time>
      </trkpt>
      <trkpt lat="45.77456" lon="5.78822">
        <ele>392.01</ele>
        <time>2022-04-27T08:03:04.247Z</time>
      </trkpt>
      <trkpt lat="45.77433" lon="5.78827">
        <ele>387.65</ele>
        <time>2022-04-27T08:03:23.006Z</time>
      </trkpt>
      <trkpt lat="45.7741" lon="5.78829">
        <ele>384.1</ele>
        <time>2022-04-27T08:03:41.067Z</time>
      </trkpt>
      <trkpt lat="45.77387" lon="5.78832">
        <ele>382.63</ele>
        <time>2022-04-27T08:03:59.164Z</time>
      </trkpt>
      <trkpt lat="45.77364" lon="5.78836">
        <ele>382.37</ele>
        <time>2022-04-27T08:04:17.108Z</time>
      </trkpt>
      <trkpt lat="45.77341" lon="5.78846">
        <ele>381.14</ele>
        <time>2022-04-27T08:04:35.000Z</time>
      </trkpt>
      <trkpt lat="45.77319" lon="5.78857">
        <ele>381.23</ele>
        <time>2022-04-27T08:04:52.783Z</time>
      </trkpt>
      <trkpt lat="45.77298" lon="5.78867">
        <ele>380.87</ele>
        <time>2022-04-27T08:05:09.900Z</time>
      </trkpt>
      <trkpt lat="45.77276" lon="5.78878">
        <ele>380.22</ele>
        <time>2022-04-27T08:05:29.324Z</time>
      </trkpt>
      <trkpt lat="45.77253" lon="5.78874">
        <ele>381.98</ele>
        <time>2022-04-27T08:05:49.149Z</time>
      </trkpt>
      <trkpt lat="45.7723" lon="5.78872">
        <ele>384.54</ele>
        <time>2022-04-27T08:07:17.080Z</time>
      </trkpt>
      <trkpt lat="45.77207" lon="5.78865">
        <ele>396</ele>
        <time>2022-04-27T08:07:39.000Z</time>
      </trkpt>
      <trkpt lat="45.77184" lon="5.78871">
        <ele>395.74</ele>
        <time>2022-04-27T08:08:13.064Z</time>
      </trkpt>
      <trkpt lat="45.77161" lon="5.78876">
        <ele>405.24</ele>
        <time>2022-04-27T08:08:32.843Z</time>
      </trkpt>
      <trkpt lat="45.77138" lon="5.78879">
        <ele>413.28</ele>
        <time>2022-04-27T08:08:59.921Z</time>
      </trkpt>
      <trkpt lat="45.77119" lon="5.78897">
        <ele>417.45</ele>
        <time>2022-04-27T08:09:31.283Z</time>
      </trkpt>
      <trkpt lat="45.77096" lon="5.78901">
        <ele>403.83</ele>
        <time>2022-04-27T08:10:34.000Z</time>
      </trkpt>
      <trkpt lat="45.77073" lon="5.78899">
        <ele>396.08</ele>
        <time>2022-04-27T08:11:03.000Z</time>
      </trkpt>
      <trkpt lat="45.7705" lon="5.78899">
        <ele>388.28</ele>
        <time>2022-04-27T08:11:29.743Z</time>
      </trkpt>
      <trkpt lat="45.77027" lon="5.78898">
        <ele>382.89</ele>
        <time>2022-04-27T08:11:55.381Z</time>
      </trkpt>
      <trkpt lat="45.77006" lon="5.7889">
        <ele>400.63</ele>
        <time>2022-04-27T08:12:34.000Z</time>
      </trkpt>
      <trkpt lat="45.76983" lon="5.7889">
        <ele>406.42</ele>
        <time>2022-04-27T08:13:53.335Z</time>
      </trkpt>
      <trkpt lat="45.7696" lon="5.78889">
        <ele>411.23</ele>
        <time>2022-04-27T08:14:13.107Z</time>
      </trkpt>
      <trkpt lat="45.76939" lon="5.78904">
        <ele>414.57</ele>
        <time>2022-04-27T08:14:32.049Z</time>
      </trkpt>
      <trkpt lat="45.76916" lon="5.78908">
        <ele>413.17</ele>
        <time>2022-04-27T08:14:57.304Z</time>
      </trkpt>
      <trkpt lat="45.76894" lon="5.78919">
        <ele>411.67</ele>
        <time>2022-04-27T08:15:17.187Z</time>
      </trkpt>
      <trkpt lat="45.76874" lon="5.78935">
        <ele>411.83</ele>
        <time>2022-04-27T08:15:39.762Z</time>
      </trkpt>
      <trkpt lat="45.76856" lon="5.78956">
        <ele>404.06</ele>
        <time>2022-04-27T08:16:04.047Z</time>
      </trkpt>
      <trkpt lat="45.76837" lon="5.78973">
        <ele>399.89</ele>
        <time>2022-04-27T08:16:28.282Z</time>
      </trkpt>
      <trkpt lat="45.76816" lon="5.78986">
        <ele>398.1</ele>
        <time>2022-04-27T08:16:53.948Z</time>
      </trkpt>
      <trkpt lat="45.76817" lon="5.79018">
        <ele>397.17</ele>
        <time>2022-04-27T08:17:21.387Z</time>
      </trkpt>
      <trkpt lat="45.76807" lon="5.79048">
        <ele>401.94</ele>
        <time>2022-04-27T08:17:53.909Z</time>
      </trkpt>
      <trkpt lat="45.76785" lon="5.7905">
        <ele>405.28</ele>
        <time>2022-04-27T08:18:21.363Z</time>
      </trkpt>
      <trkpt lat="45.76762" lon="5.79055">
        <ele>401.78</ele>
        <time>2022-04-27T08:18:44.915Z</time>
      </trkpt>
      <trkpt lat="45.76739" lon="5.7906">
        <ele>407.29</ele>
        <time>2022-04-27T08:19:10.901Z</time>
      </trkpt>
      <trkpt lat="45.76717" lon="5.7907">
        <ele>409.63</ele>
        <time>2022-04-27T08:19:47.779Z</time>
      </trkpt>
      <trkpt lat="45.76695" lon="5.79076">
        <ele>410.55</ele>
        <time>2022-04-27T08:20:10.278Z</time>
      </trkpt>
      <trkpt lat="45.76671" lon="5.79075">
        <ele>410.52</ele>
        <time>2022-04-27T08:20:31.056Z</time>
      </trkpt>
      <trkpt lat="45.76649" lon="5.79073">
        <ele>410.3</ele>
        <time>2022-04-27T08:20:58.213Z</time>
      </trkpt>
      <trkpt lat="45.76626" lon="5.79077">
        <ele>409.05</ele>
        <time>2022-04-27T08:21:18.262Z</time>
      </trkpt>
      <trkpt lat="45.76603" lon="5.79079">
        <ele>408.09</ele>
        <time>2022-04-27T08:21:38.857Z</time>
      </trkpt>
      <trkpt lat="45.7658" lon="5.79086">
        <ele>406.25</ele>
        <time>2022-04-27T08:23:25.361Z</time>
      </trkpt>
      <trkpt lat="45.76557" lon="5.79093">
        <ele>405.23</ele>
        <time>2022-04-27T08:23:45.199Z</time>
      </trkpt>
      <trkpt lat="45.76535" lon="5.79105">
        <ele>401.38</ele>
        <time>2022-04-27T08:24:08.000Z</time>
      </trkpt>
      <trkpt lat="45.76514" lon="5.79115">
        <ele>397.71</ele>
        <time>2022-04-27T08:24:28.776Z</time>
      </trkpt>
      <trkpt lat="45.76491" lon="5.79114">
        <ele>397.48</ele>
        <time>2022-04-27T08:24:48.000Z</time>
      </trkpt>
      <trkpt lat="45.7647" lon="5.79125">
        <ele>398.31</ele>
        <time>2022-04-27T08:25:09.396Z</time>
      </trkpt>
      <trkpt lat="45.7645" lon="5.79141">
        <ele>398.04</ele>
        <time>2022-04-27T08:25:36.015Z</time>
      </trkpt>
      <trkpt lat="45.76428" lon="5.79151">
        <ele>390.1</ele>
        <time>2022-04-27T08:26:04.078Z</time>
      </trkpt>
      <trkpt lat="45.76407" lon="5.79164">
        <ele>376.35</ele>
        <time>2022-04-27T08:26:37.154Z</time>
      </trkpt>
      <trkpt lat="45.76384" lon="5.79171">
        <ele>373.4</ele>
        <time>2022-04-27T08:27:00.259Z</time>
      </trkpt>
      <trkpt lat="45.76361" lon="5.7918">
        <ele>370.1</ele>
        <time>2022-04-27T08:27:24.142Z</time>
      </trkpt>
      <trkpt lat="45.76339" lon="5.79191">
        <ele>365.54</ele>
        <time>2022-04-27T08:27:50.080Z</time>
      </trkpt>
      <trkpt lat="45.76318" lon="5.79202">
        <ele>360.23</ele>
        <time>2022-04-27T08:28:16.519Z</time>
      </trkpt>
      <trkpt lat="45.76298" lon="5.79217">
        <ele>355.33</ele>
        <time>2022-04-27T08:28:44.599Z</time>
      </trkpt>
      <trkpt lat="45.76276" lon="5.79229">
        <ele>353.46</ele>
        <time>2022-04-27T08:29:08.155Z</time>
      </trkpt>
      <trkpt lat="45.76255" lon="5.79242">
        <ele>346.73</ele>
        <time>2022-04-27T08:33:43.122Z</time>
      </trkpt>
      <trkpt lat="45.76234" lon="5.79256">
        <ele>344.46</ele>
        <time>2022-04-27T08:34:00.954Z</time>
      </trkpt>
      <trkpt lat="45.76214" lon="5.79274">
        <ele>341.67</ele>
        <time>2022-04-27T08:34:19.000Z</time>
      </trkpt>
      <trkpt lat="45.76194" lon="5.7929">
        <ele>341.11</ele>
        <time>2022-04-27T08:34:49.000Z</time>
      </trkpt>
      <trkpt lat="45.76172" lon="5.79301">
        <ele>339.51</ele>
        <time>2022-04-27T08:35:11.260Z</time>
      </trkpt>
      <trkpt lat="45.76149" lon="5.79312">
        <ele>338.13</ele>
        <time>2022-04-27T08:35:30.919Z</time>
      </trkpt>
      <trkpt lat="45.76127" lon="5.79324">
        <ele>336.45</ele>
        <time>2022-04-27T08:35:49.157Z</time>
      </trkpt>
      <trkpt lat="45.76132" lon="5.79357">
        <ele>328.12</ele>
        <time>2022-04-27T08:36:09.872Z</time>
      </trkpt>
      <trkpt lat="45.76137" lon="5.79389">
        <ele>326.23</ele>
        <time>2022-04-27T08:36:29.819Z</time>
      </trkpt>
      <trkpt lat="45.76152" lon="5.79414">
        <ele>331.67</ele>
        <time>2022-04-27T08:37:50.303Z</time>
      </trkpt>
      <trkpt lat="45.76175" lon="5.79418">
        <ele>332.96</ele>
        <time>2022-04-27T08:38:08.836Z</time>
      </trkpt>
      <trkpt lat="45.76198" lon="5.79417">
        <ele>333.49</ele>
        <time>2022-04-27T08:38:34.259Z</time>
      </trkpt>
      <trkpt lat="45.76217" lon="5.79401">
        <ele>334.04</ele>
        <time>2022-04-27T08:39:00.182Z</time>
      </trkpt>
      <trkpt lat="45.76237" lon="5.79383">
        <ele>337.23</ele>
        <time>2022-04-27T08:40:23.277Z</time>
      </trkpt>
      <trkpt lat="45.76255" lon="5.79361">
        <ele>339.49</ele>
        <time>2022-04-27T08:40:45.000Z</time>
      </trkpt>
      <trkpt lat="45.76274" lon="5.79342">
        <ele>341.64</ele>
        <time>2022-04-27T08:41:12.000Z</time>
      </trkpt>
      <trkpt lat="45.76255" lon="5.79361">
        <ele>338.72</ele>
        <time>2022-04-27T08:42:35.345Z</time>
      </trkpt>
      <trkpt lat="45.76235" lon="5.79376">
        <ele>340.73</ele>
        <time>2022-04-27T08:42:55.042Z</time>
      </trkpt>
      <trkpt lat="45.76215" lon="5.79393">
        <ele>344.68</ele>
        <time>2022-04-27T08:43:12.959Z</time>
      </trkpt>
      <trkpt lat="45.76197" lon="5.79413">
        <ele>340.75</ele>
        <time>2022-04-27T08:43:31.136Z</time>
      </trkpt>
      <trkpt lat="45.76174" lon="5.79414">
        <ele>337.26</ele>
        <time>2022-04-27T08:43:51.898Z</time>
      </trkpt>
      <trkpt lat="45.76152" lon="5.7941">
        <ele>332.82</ele>
        <time>2022-04-27T08:44:12.440Z</time>
      </trkpt>
      <trkpt lat="45.76131" lon="5.79394">
        <ele>333.29</ele>
        <time>2022-04-27T08:44:31.875Z</time>
      </trkpt>
      <trkpt lat="45.76109" lon="5.79399">
        <ele>328.51</ele>
        <time>2022-04-27T08:44:51.033Z</time>
      </trkpt>
      <trkpt lat="45.76111" lon="5.79432">
        <ele>324.68</ele>
        <time>2022-04-27T08:45:09.614Z</time>
      </trkpt>
      <trkpt lat="45.76121" lon="5.79461">
        <ele>326.13</ele>
        <time>2022-04-27T08:45:26.735Z</time>
      </trkpt>
      <trkpt lat="45.76124" lon="5.79494">
        <ele>326.94</ele>
        <time>2022-04-27T08:45:45.277Z</time>
      </trkpt>
      <trkpt lat="45.76128" lon="5.79526">
        <ele>323.73</ele>
        <time>2022-04-27T08:46:03.676Z</time>
      </trkpt>
      <trkpt lat="45.76133" lon="5.79558">
        <ele>319.76</ele>
        <time>2022-04-27T08:46:23.737Z</time>
      </trkpt>
      <trkpt lat="45.76138" lon="5.7959">
        <ele>325.3</ele>
        <time>2022-04-27T08:46:41.213Z</time>
      </trkpt>
      <trkpt lat="45.76127" lon="5.7962">
        <ele>328.57</ele>
        <time>2022-04-27T08:47:01.100Z</time>
      </trkpt>
      <trkpt lat="45.76112" lon="5.79645">
        <ele>326.31</ele>
        <time>2022-04-27T08:47:20.347Z</time>
      </trkpt>
      <trkpt lat="45.76095" lon="5.79667">
        <ele>324.41</ele>
        <time>2022-04-27T08:47:40.348Z</time>
      </trkpt>
      <trkpt lat="45.76074" lon="5.7968">
        <ele>328.65</ele>
        <time>2022-04-27T08:47:57.833Z</time>
      </trkpt>
      <trkpt lat="45.76053" lon="5.79691">
        <ele>288.18</ele>
        <time>2022-04-27T08:48:16.241Z</time>
      </trkpt>
      <trkpt lat="45.7604" lon="5.79719">
        <ele>322.63</ele>
        <time>2022-04-27T08:48:34.918Z</time>
      </trkpt>
      <trkpt lat="45.76047" lon="5.79749">
        <ele>337.37</ele>
        <time>2022-04-27T08:48:55.901Z</time>
      </trkpt>
      <trkpt lat="45.76031" lon="5.79772">
        <ele>335.37</ele>
        <time>2022-04-27T08:49:48.253Z</time>
      </trkpt>
      <trkpt lat="45.7601" lon="5.79784">
        <ele>336.87</ele>
        <time>2022-04-27T08:50:07.291Z</time>
      </trkpt>
      <trkpt lat="45.75996" lon="5.79758">
        <ele>337.37</ele>
        <time>2022-04-27T08:50:25.837Z</time>
      </trkpt>
      <trkpt lat="45.75979" lon="5.79737">
        <ele>331.9</ele>
        <time>2022-04-27T08:50:45.349Z</time>
      </trkpt>
      <trkpt lat="45.75959" lon="5.79721">
        <ele>288.17</ele>
        <time>2022-04-27T08:51:06.159Z</time>
      </trkpt>
      <trkpt lat="45.75937" lon="5.79712">
        <ele>331.43</ele>
        <time>2022-04-27T08:51:27.000Z</time>
      </trkpt>
      <trkpt lat="45.75914" lon="5.79714">
        <ele>334.4</ele>
        <time>2022-04-27T08:51:46.800Z</time>
      </trkpt>
      <trkpt lat="45.75891" lon="5.79709">
        <ele>340.57</ele>
        <time>2022-04-27T08:52:05.975Z</time>
      </trkpt>
      <trkpt lat="45.7587" lon="5.79697">
        <ele>334.71</ele>
        <time>2022-04-27T08:52:25.796Z</time>
      </trkpt>
      <trkpt lat="45.75847" lon="5.79693">
        <ele>329.3</ele>
        <time>2022-04-27T08:52:49.017Z</time>
      </trkpt>
      <trkpt lat="45.75829" lon="5.79672">
        <ele>324.85</ele>
        <time>2022-04-27T08:53:13.000Z</time>
      </trkpt>
      <trkpt lat="45.75818" lon="5.79643">
        <ele>321.21</ele>
        <time>2022-04-27T08:53:34.000Z</time>
      </trkpt>
      <trkpt lat="45.75795" lon="5.79646">
        <ele>322.66</ele>
        <time>2022-04-27T08:55:03.800Z</time>
      </trkpt>
      <trkpt lat="45.75775" lon="5.79664">
        <ele>324.64</ele>
        <time>2022-04-27T08:55:23.918Z</time>
      </trkpt>
      <trkpt lat="45.75753" lon="5.79673">
        <ele>319.13</ele>
        <time>2022-04-27T08:55:44.113Z</time>
      </trkpt>
      <trkpt lat="45.75731" lon="5.79683">
        <ele>319.78</ele>
        <time>2022-04-27T08:56:03.298Z</time>
      </trkpt>
      <trkpt lat="45.75715" lon="5.7966">
        <ele>328.64</ele>
        <time>2022-04-27T08:56:36.040Z</time>
      </trkpt>
      <trkpt lat="45.75718" lon="5.79627">
        <ele>319.59</ele>
        <time>2022-04-27T08:56:53.831Z</time>
      </trkpt>
      <trkpt lat="45.75697" lon="5.79615">
        <ele>322.23</ele>
        <time>2022-04-27T08:57:14.181Z</time>
      </trkpt>
      <trkpt lat="45.75673" lon="5.79616">
        <ele>320.86</ele>
        <time>2022-04-27T08:57:33.378Z</time>
      </trkpt>
      <trkpt lat="45.75651" lon="5.79609">
        <ele>324.3</ele>
        <time>2022-04-27T08:57:54.073Z</time>
      </trkpt>
      <trkpt lat="45.75633" lon="5.79589">
        <ele>322.7</ele>
        <time>2022-04-27T08:58:14.094Z</time>
      </trkpt>
      <trkpt lat="45.75619" lon="5.79563">
        <ele>324.4</ele>
        <time>2022-04-27T08:58:31.694Z</time>
      </trkpt>
      <trkpt lat="45.75605" lon="5.79537">
        <ele>321.17</ele>
        <time>2022-04-27T08:58:53.878Z</time>
      </trkpt>
      <trkpt lat="45.75591" lon="5.79511">
        <ele>321.17</ele>
        <time>2022-04-27T08:59:15.014Z</time>
      </trkpt>
      <trkpt lat="45.75574" lon="5.79488">
        <ele>321.17</ele>
        <time>2022-04-27T08:59:33.000Z</time>
      </trkpt>
      <trkpt lat="45.75552" lon="5.79494">
        <ele>320.45</ele>
        <time>2022-04-27T09:00:13.139Z</time>
      </trkpt>
      <trkpt lat="45.75529" lon="5.79497">
        <ele>318.13</ele>
        <time>2022-04-27T09:00:35.000Z</time>
      </trkpt>
      <trkpt lat="45.75506" lon="5.79496">
        <ele>322.2</ele>
        <time>2022-04-27T09:00:57.093Z</time>
      </trkpt>
      <trkpt lat="45.75483" lon="5.79495">
        <ele>320.98</ele>
        <time>2022-04-27T09:01:17.114Z</time>
      </trkpt>
      <trkpt lat="45.75461" lon="5.79492">
        <ele>323.51</ele>
        <time>2022-04-27T09:01:36.954Z</time>
      </trkpt>
      <trkpt lat="45.75438" lon="5.79488">
        <ele>322.8</ele>
        <time>2022-04-27T09:01:58.955Z</time>
      </trkpt>
      <trkpt lat="45.75415" lon="5.79481">
        <ele>326.8</ele>
        <time>2022-04-27T09:02:20.716Z</time>
      </trkpt>
      <trkpt lat="45.75392" lon="5.79482">
        <ele>331.31</ele>
        <time>2022-04-27T09:03:15.352Z</time>
      </trkpt>
      <trkpt lat="45.7537" lon="5.79485">
        <ele>329.28</ele>
        <time>2022-04-27T09:03:34.980Z</time>
      </trkpt>
      <trkpt lat="45.75347" lon="5.79486">
        <ele>329.74</ele>
        <time>2022-04-27T09:03:54.157Z</time>
      </trkpt>
      <trkpt lat="45.75325" lon="5.79487">
        <ele>330.17</ele>
        <time>2022-04-27T09:04:14.092Z</time>
      </trkpt>
      <trkpt lat="45.75302" lon="5.7949">
        <ele>331.56</ele>
        <time>2022-04-27T09:04:35.941Z</time>
      </trkpt>
      <trkpt lat="45.75279" lon="5.79494">
        <ele>330.59</ele>
        <time>2022-04-27T09:04:56.173Z</time>
      </trkpt>
      <trkpt lat="45.75258" lon="5.79506">
        <ele>331.13</ele>
        <time>2022-04-27T09:05:15.974Z</time>
      </trkpt>
      <trkpt lat="45.75236" lon="5.79518">
        <ele>332.69</ele>
        <time>2022-04-27T09:05:36.343Z</time>
      </trkpt>
      <trkpt lat="45.75216" lon="5.79533">
        <ele>334.34</ele>
        <time>2022-04-27T09:05:55.095Z</time>
      </trkpt>
      <trkpt lat="45.75193" lon="5.79542">
        <ele>343.37</ele>
        <time>2022-04-27T09:06:15.213Z</time>
      </trkpt>
      <trkpt lat="45.7517" lon="5.79544">
        <ele>343.01</ele>
        <time>2022-04-27T09:06:35.000Z</time>
      </trkpt>
      <trkpt lat="45.75147" lon="5.79542">
        <ele>335.74</ele>
        <time>2022-04-27T09:06:53.960Z</time>
      </trkpt>
      <trkpt lat="45.75125" lon="5.79535">
        <ele>335.1</ele>
        <time>2022-04-27T09:07:13.059Z</time>
      </trkpt>
      <trkpt lat="45.75103" lon="5.79525">
        <ele>336.9</ele>
        <time>2022-04-27T09:07:32.033Z</time>
      </trkpt>
      <trkpt lat="45.7508" lon="5.79517">
        <ele>340.75</ele>
        <time>2022-04-27T09:07:50.979Z</time>
      </trkpt>
      <trkpt lat="45.75058" lon="5.79506">
        <ele>343.98</ele>
        <time>2022-04-27T09:08:12.096Z</time>
      </trkpt>
      <trkpt lat="45.75035" lon="5.79506">
        <ele>344.88</ele>
        <time>2022-04-27T09:08:34.376Z</time>
      </trkpt>
      <trkpt lat="45.75012" lon="5.79504">
        <ele>344.88</ele>
        <time>2022-04-27T09:08:55.876Z</time>
      </trkpt>
      <trkpt lat="45.74989" lon="5.79508">
        <ele>344.88</ele>
        <time>2022-04-27T09:09:14.092Z</time>
      </trkpt>
      <trkpt lat="45.74967" lon="5.79516">
        <ele>344.08</ele>
        <time>2022-04-27T09:09:34.113Z</time>
      </trkpt>
      <trkpt lat="45.74965" lon="5.79483">
        <ele>344.08</ele>
        <time>2022-04-27T09:10:25.841Z</time>
      </trkpt>
      <trkpt lat="45.74986" lon="5.79469">
        <ele>336.29</ele>
        <time>2022-04-27T09:10:44.641Z</time>
      </trkpt>
      <trkpt lat="45.75006" lon="5.79453">
        <ele>338.23</ele>
        <time>2022-04-27T09:11:04.000Z</time>
      </trkpt>
      <trkpt lat="45.75027" lon="5.79439">
        <ele>337.3</ele>
        <time>2022-04-27T09:11:53.016Z</time>
      </trkpt>
      <trkpt lat="45.7505" lon="5.79438">
        <ele>336.8</ele>
        <time>2022-04-27T09:12:11.636Z</time>
      </trkpt>
      <trkpt lat="45.7507" lon="5.79423">
        <ele>338.33</ele>
        <time>2022-04-27T09:12:33.300Z</time>
      </trkpt>
      <trkpt lat="45.75093" lon="5.7941">
        <ele>334.96</ele>
        <time>2022-04-27T09:12:58.000Z</time>
      </trkpt>
      <trkpt lat="45.75112" lon="5.79391">
        <ele>338.15</ele>
        <time>2022-04-27T09:13:23.334Z</time>
      </trkpt>
      <trkpt lat="45.75128" lon="5.79368">
        <ele>318.02</ele>
        <time>2022-04-27T09:14:54.354Z</time>
      </trkpt>
      <trkpt lat="45.75144" lon="5.79345">
        <ele>311.35</ele>
        <time>2022-04-27T09:15:35.915Z</time>
      </trkpt>
      <trkpt lat="45.75125" lon="5.79326">
        <ele>306.61</ele>
        <time>2022-04-27T09:16:12.077Z</time>
      </trkpt>
      <trkpt lat="45.75102" lon="5.79319">
        <ele>303.66</ele>
        <time>2022-04-27T09:16:34.076Z</time>
      </trkpt>
      <trkpt lat="45.7508" lon="5.79316">
        <ele>306.23</ele>
        <time>2022-04-27T09:16:53.349Z</time>
      </trkpt>
      <trkpt lat="45.75057" lon="5.7931">
        <ele>306.84</ele>
        <time>2022-04-27T09:17:13.140Z</time>
      </trkpt>
      <trkpt lat="45.75034" lon="5.79307">
        <ele>307.45</ele>
        <time>2022-04-27T09:17:32.335Z</time>
      </trkpt>
      <trkpt lat="45.7501" lon="5.79303">
        <ele>306.85</ele>
        <time>2022-04-27T09:17:53.039Z</time>
      </trkpt>
      <trkpt lat="45.74988" lon="5.79312">
        <ele>308.4</ele>
        <time>2022-04-27T09:18:12.359Z</time>
      </trkpt>
      <trkpt lat="45.74967" lon="5.7932">
        <ele>307.12</ele>
        <time>2022-04-27T09:18:32.918Z</time>
      </trkpt>
      <trkpt lat="45.74944" lon="5.79322">
        <ele>305.67</ele>
        <time>2022-04-27T09:18:54.274Z</time>
      </trkpt>
      <trkpt lat="45.74921" lon="5.79322">
        <ele>305.66</ele>
        <time>2022-04-27T09:19:15.660Z</time>
      </trkpt>
      <trkpt lat="45.74898" lon="5.79322">
        <ele>304.42</ele>
        <time>2022-04-27T09:19:35.594Z</time>
      </trkpt>
      <trkpt lat="45.74888" lon="5.79351">
        <ele>306.38</ele>
        <time>2022-04-27T09:20:11.382Z</time>
      </trkpt>
      <trkpt lat="45.74877" lon="5.7938">
        <ele>305.91</ele>
        <time>2022-04-27T09:20:34.180Z</time>
      </trkpt>
      <trkpt lat="45.74858" lon="5.79397">
        <ele>304.98</ele>
        <time>2022-04-27T09:20:55.257Z</time>
      </trkpt>
      <trkpt lat="45.74836" lon="5.79408">
        <ele>301.89</ele>
        <time>2022-04-27T09:21:20.274Z</time>
      </trkpt>
      <trkpt lat="45.74813" lon="5.79415">
        <ele>299.41</ele>
        <time>2022-04-27T09:21:46.137Z</time>
      </trkpt>
      <trkpt lat="45.74793" lon="5.79433">
        <ele>293.89</ele>
        <time>2022-04-27T09:22:09.175Z</time>
      </trkpt>
      <trkpt lat="45.74775" lon="5.79454">
        <ele>291.54</ele>
        <time>2022-04-27T09:22:32.193Z</time>
      </trkpt>
      <trkpt lat="45.74751" lon="5.79454">
        <ele>285.56</ele>
        <time>2022-04-27T09:23:08.038Z</time>
      </trkpt>
      <trkpt lat="45.74729" lon="5.79449">
        <ele>276.95</ele>
        <time>2022-04-27T09:24:24.898Z</time>
      </trkpt>
      <trkpt lat="45.74706" lon="5.79447">
        <ele>318.77</ele>
        <time>2022-04-27T09:24:47.159Z</time>
      </trkpt>
      <trkpt lat="45.74683" lon="5.79454">
        <ele>284.61</ele>
        <time>2022-04-27T09:25:09.314Z</time>
      </trkpt>
      <trkpt lat="45.74661" lon="5.79464">
        <ele>318.77</ele>
        <time>2022-04-27T09:25:30.873Z</time>
      </trkpt>
      <trkpt lat="45.74639" lon="5.79474">
        <ele>318.77</ele>
        <time>2022-04-27T09:25:57.235Z</time>
      </trkpt>
      <trkpt lat="45.74619" lon="5.7949">
        <ele>318.77</ele>
        <time>2022-04-27T09:26:24.356Z</time>
      </trkpt>
      <trkpt lat="45.74598" lon="5.79503">
        <ele>318.77</ele>
        <time>2022-04-27T09:26:47.079Z</time>
      </trkpt>
      <trkpt lat="45.74576" lon="5.79513">
        <ele>279.58</ele>
        <time>2022-04-27T09:27:54.859Z</time>
      </trkpt>
      <trkpt lat="45.74553" lon="5.79519">
        <ele>279.34</ele>
        <time>2022-04-27T09:28:14.354Z</time>
      </trkpt>
      <trkpt lat="45.74531" lon="5.79527">
        <ele>281.21</ele>
        <time>2022-04-27T09:28:35.355Z</time>
      </trkpt>
      <trkpt lat="45.74509" lon="5.79537">
        <ele>281.44</ele>
        <time>2022-04-27T09:28:55.175Z</time>
      </trkpt>
      <trkpt lat="45.74487" lon="5.79545">
        <ele>283.53</ele>
        <time>2022-04-27T09:29:15.255Z</time>
      </trkpt>
      <trkpt lat="45.74465" lon="5.79552">
        <ele>286.75</ele>
        <time>2022-04-27T09:29:36.238Z</time>
      </trkpt>
      <trkpt lat="45.74442" lon="5.79557">
        <ele>296.66</ele>
        <time>2022-04-27T09:29:57.000Z</time>
      </trkpt>
      <trkpt lat="45.74421" lon="5.79573">
        <ele>291.43</ele>
        <time>2022-04-27T09:30:21.277Z</time>
      </trkpt>
      <trkpt lat="45.74401" lon="5.79588">
        <ele>289.68</ele>
        <time>2022-04-27T09:30:44.517Z</time>
      </trkpt>
      <trkpt lat="45.74379" lon="5.79594">
        <ele>285.64</ele>
        <time>2022-04-27T09:31:07.134Z</time>
      </trkpt>
      <trkpt lat="45.74359" lon="5.7961">
        <ele>283.86</ele>
        <time>2022-04-27T09:31:27.896Z</time>
      </trkpt>
      <trkpt lat="45.74337" lon="5.79619">
        <ele>281.14</ele>
        <time>2022-04-27T09:31:48.320Z</time>
      </trkpt>
      <trkpt lat="45.74314" lon="5.79622">
        <ele>279.55</ele>
        <time>2022-04-27T09:32:09.197Z</time>
      </trkpt>
      <trkpt lat="45.74294" lon="5.79608">
        <ele>278.94</ele>
        <time>2022-04-27T09:32:30.613Z</time>
      </trkpt>
      <trkpt lat="45.74272" lon="5.79617">
        <ele>279.55</ele>
        <time>2022-04-27T09:32:56.754Z</time>
      </trkpt>
      <trkpt lat="45.74251" lon="5.79629">
        <ele>278.36</ele>
        <time>2022-04-27T09:33:16.719Z</time>
      </trkpt>
      <trkpt lat="45.74229" lon="5.79634">
        <ele>278.34</ele>
        <time>2022-04-27T09:33:37.298Z</time>
      </trkpt>
      <trkpt lat="45.74208" lon="5.79646">
        <ele>276.63</ele>
        <time>2022-04-27T09:33:56.342Z</time>
      </trkpt>
      <trkpt lat="45.74189" lon="5.79663">
        <ele>277.23</ele>
        <time>2022-04-27T09:34:14.978Z</time>
      </trkpt>
      <trkpt lat="45.7417" lon="5.79682">
        <ele>277.48</ele>
        <time>2022-04-27T09:34:34.349Z</time>
      </trkpt>
      <trkpt lat="45.7415" lon="5.797">
        <ele>278.89</ele>
        <time>2022-04-27T09:34:54.118Z</time>
      </trkpt>
      <trkpt lat="45.7413" lon="5.79716">
        <ele>280.06</ele>
        <time>2022-04-27T09:35:13.996Z</time>
      </trkpt>
      <trkpt lat="45.74111" lon="5.79734">
        <ele>285.66</ele>
        <time>2022-04-27T09:35:34.040Z</time>
      </trkpt>
      <trkpt lat="45.74091" lon="5.79749">
        <ele>285.73</ele>
        <time>2022-04-27T09:35:56.740Z</time>
      </trkpt>
      <trkpt lat="45.74071" lon="5.79768">
        <ele>286.85</ele>
        <time>2022-04-27T09:36:18.136Z</time>
      </trkpt>
      <trkpt lat="45.74055" lon="5.79791">
        <ele>292.05</ele>
        <time>2022-04-27T09:36:38.062Z</time>
      </trkpt>
      <trkpt lat="45.74048" lon="5.79822">
        <ele>292.95</ele>
        <time>2022-04-27T09:37:10.736Z</time>
      </trkpt>
      <trkpt lat="45.74029" lon="5.7984">
        <ele>291.81</ele>
        <time>2022-04-27T09:37:34.275Z</time>
      </trkpt>
      <trkpt lat="45.74008" lon="5.79852">
        <ele>291.53</ele>
        <time>2022-04-27T09:37:57.000Z</time>
      </trkpt>
      <trkpt lat="45.73987" lon="5.79864">
        <ele>291.72</ele>
        <time>2022-04-27T09:38:21.351Z</time>
      </trkpt>
      <trkpt lat="45.73965" lon="5.79873">
        <ele>294.73</ele>
        <time>2022-04-27T09:38:42.199Z</time>
      </trkpt>
      <trkpt lat="45.73943" lon="5.79881">
        <ele>298.67</ele>
        <time>2022-04-27T09:39:08.697Z</time>
      </trkpt>
      <trkpt lat="45.7392" lon="5.79889">
        <ele>299.61</ele>
        <time>2022-04-27T09:39:31.000Z</time>
      </trkpt>
      <trkpt lat="45.73899" lon="5.79904">
        <ele>302.14</ele>
        <time>2022-04-27T09:39:56.320Z</time>
      </trkpt>
      <trkpt lat="45.73881" lon="5.79923">
        <ele>304.39</ele>
        <time>2022-04-27T09:40:20.782Z</time>
      </trkpt>
      <trkpt lat="45.73861" lon="5.79939">
        <ele>307.41</ele>
        <time>2022-04-27T09:40:45.300Z</time>
      </trkpt>
      <trkpt lat="45.73838" lon="5.79945">
        <ele>309.33</ele>
        <time>2022-04-27T09:41:11.356Z</time>
      </trkpt>
      <trkpt lat="45.73816" lon="5.79955">
        <ele>323.15</ele>
        <time>2022-04-27T09:41:36.000Z</time>
      </trkpt>
      <trkpt lat="45.73793" lon="5.79956">
        <ele>316.93</ele>
        <time>2022-04-27T09:51:06.734Z</time>
      </trkpt>
      <trkpt lat="45.7377" lon="5.79963">
        <ele>316.19</ele>
        <time>2022-04-27T09:51:32.117Z</time>
      </trkpt>
      <trkpt lat="45.73749" lon="5.79973">
        <ele>317.31</ele>
        <time>2022-04-27T09:51:54.388Z</time>
      </trkpt>
      <trkpt lat="45.73726" lon="5.79981">
        <ele>320.22</ele>
        <time>2022-04-27T09:52:31.000Z</time>
      </trkpt>
      <trkpt lat="45.73703" lon="5.79985">
        <ele>322.51</ele>
        <time>2022-04-27T09:53:02.000Z</time>
      </trkpt>
      <trkpt lat="45.73681" lon="5.79994">
        <ele>326.96</ele>
        <time>2022-04-27T09:53:29.000Z</time>
      </trkpt>
      <trkpt lat="45.73659" lon="5.79996">
        <ele>335.22</ele>
        <time>2022-04-27T09:54:02.800Z</time>
      </trkpt>
      <trkpt lat="45.73637" lon="5.80009">
        <ele>334.27</ele>
        <time>2022-04-27T09:54:36.000Z</time>
      </trkpt>
      <trkpt lat="45.73616" lon="5.80018">
        <ele>336.32</ele>
        <time>2022-04-27T09:55:00.000Z</time>
      </trkpt>
      <trkpt lat="45.73593" lon="5.80024">
        <ele>338.41</ele>
        <time>2022-04-27T09:55:32.055Z</time>
      </trkpt>
      <trkpt lat="45.73571" lon="5.80018">
        <ele>339.55</ele>
        <time>2022-04-27T09:56:00.060Z</time>
      </trkpt>
      <trkpt lat="45.73552" lon="5.80038">
        <ele>345.96</ele>
        <time>2022-04-27T09:56:35.000Z</time>
      </trkpt>
      <trkpt lat="45.7353" lon="5.80037">
        <ele>349.69</ele>
        <time>2022-04-27T09:57:11.000Z</time>
      </trkpt>
      <trkpt lat="45.73507" lon="5.80043">
        <ele>356.23</ele>
        <time>2022-04-27T09:57:36.940Z</time>
      </trkpt>
      <trkpt lat="45.73485" lon="5.80049">
        <ele>360.85</ele>
        <time>2022-04-27T09:58:09.000Z</time>
      </trkpt>
      <trkpt lat="45.73462" lon="5.8005">
        <ele>367.74</ele>
        <time>2022-04-27T09:58:34.000Z</time>
      </trkpt>
      <trkpt lat="45.73442" lon="5.80067">
        <ele>370.84</ele>
        <time>2022-04-27T09:59:26.000Z</time>
      </trkpt>
      <trkpt lat="45.7342" lon="5.80073">
        <ele>375.8</ele>
        <time>2022-04-27T09:59:55.817Z</time>
      </trkpt>
      <trkpt lat="45.73396" lon="5.80078">
        <ele>375.49</ele>
        <time>2022-04-27T10:01:19.347Z</time>
      </trkpt>
      <trkpt lat="45.73376" lon="5.80095">
        <ele>380.09</ele>
        <time>2022-04-27T10:01:41.193Z</time>
      </trkpt>
      <trkpt lat="45.73355" lon="5.80105">
        <ele>384.49</ele>
        <time>2022-04-27T10:02:10.000Z</time>
      </trkpt>
      <trkpt lat="45.73333" lon="5.80111">
        <ele>384.59</ele>
        <time>2022-04-27T10:02:37.993Z</time>
      </trkpt>
      <trkpt lat="45.73315" lon="5.80133">
        <ele>392.46</ele>
        <time>2022-04-27T10:03:05.020Z</time>
      </trkpt>
      <trkpt lat="45.73297" lon="5.80153">
        <ele>394.63</ele>
        <time>2022-04-27T10:03:35.178Z</time>
      </trkpt>
      <trkpt lat="45.73294" lon="5.80185">
        <ele>394.63</ele>
        <time>2022-04-27T10:03:55.055Z</time>
      </trkpt>
      <trkpt lat="45.73274" lon="5.802">
        <ele>385.59</ele>
        <time>2022-04-27T10:04:20.360Z</time>
      </trkpt>
      <trkpt lat="45.73252" lon="5.80207">
        <ele>389.7</ele>
        <time>2022-04-27T10:04:44.898Z</time>
      </trkpt>
      <trkpt lat="45.73229" lon="5.80196">
        <ele>395.31</ele>
        <time>2022-04-27T10:08:32.000Z</time>
      </trkpt>
      <trkpt lat="45.73207" lon="5.80191">
        <ele>393.93</ele>
        <time>2022-04-27T10:08:59.000Z</time>
      </trkpt>
      <trkpt lat="45.73184" lon="5.8019">
        <ele>385.49</ele>
        <time>2022-04-27T10:09:49.153Z</time>
      </trkpt>
      <trkpt lat="45.73162" lon="5.80181">
        <ele>392.83</ele>
        <time>2022-04-27T10:10:10.572Z</time>
      </trkpt>
      <trkpt lat="45.73142" lon="5.80166">
        <ele>395.03</ele>
        <time>2022-04-27T10:10:29.737Z</time>
      </trkpt>
      <trkpt lat="45.7312" lon="5.80155">
        <ele>395.12</ele>
        <time>2022-04-27T10:10:47.800Z</time>
      </trkpt>
      <trkpt lat="45.73097" lon="5.80151">
        <ele>394.63</ele>
        <time>2022-04-27T10:11:09.342Z</time>
      </trkpt>
      <trkpt lat="45.7308" lon="5.80128">
        <ele>396.95</ele>
        <time>2022-04-27T10:11:30.876Z</time>
      </trkpt>
      <trkpt lat="45.73072" lon="5.80097">
        <ele>395.55</ele>
        <time>2022-04-27T10:11:53.000Z</time>
      </trkpt>
      <trkpt lat="45.73066" lon="5.80066">
        <ele>395.91</ele>
        <time>2022-04-27T10:12:14.356Z</time>
      </trkpt>
      <trkpt lat="45.73058" lon="5.80035">
        <ele>397.57</ele>
        <time>2022-04-27T10:12:35.933Z</time>
      </trkpt>
      <trkpt lat="45.73049" lon="5.80006">
        <ele>398.99</ele>
        <time>2022-04-27T10:12:58.560Z</time>
      </trkpt>
      <trkpt lat="45.73034" lon="5.79981">
        <ele>399.47</ele>
        <time>2022-04-27T10:13:21.061Z</time>
      </trkpt>
      <trkpt lat="45.73017" lon="5.79957">
        <ele>397.36</ele>
        <time>2022-04-27T10:13:46.351Z</time>
      </trkpt>
      <trkpt lat="45.73001" lon="5.79935">
        <ele>399.34</ele>
        <time>2022-04-27T10:14:06.477Z</time>
      </trkpt>
      <trkpt lat="45.72984" lon="5.79911">
        <ele>400.19</ele>
        <time>2022-04-27T10:14:27.161Z</time>
      </trkpt>
      <trkpt lat="45.72967" lon="5.7989">
        <ele>399.69</ele>
        <time>2022-04-27T10:14:47.116Z</time>
      </trkpt>
      <trkpt lat="45.72951" lon="5.79867">
        <ele>402.67</ele>
        <time>2022-04-27T10:15:21.118Z</time>
      </trkpt>
      <trkpt lat="45.72933" lon="5.79844">
        <ele>405.64</ele>
        <time>2022-04-27T10:15:42.000Z</time>
      </trkpt>
      <trkpt lat="45.72916" lon="5.79822">
        <ele>404.56</ele>
        <time>2022-04-27T10:16:03.314Z</time>
      </trkpt>
      <trkpt lat="45.72899" lon="5.79801">
        <ele>407.26</ele>
        <time>2022-04-27T10:16:23.076Z</time>
      </trkpt>
      <trkpt lat="45.72884" lon="5.79776">
        <ele>409.45</ele>
        <time>2022-04-27T10:16:44.098Z</time>
      </trkpt>
      <trkpt lat="45.72876" lon="5.79745">
        <ele>411.48</ele>
        <time>2022-04-27T10:17:12.536Z</time>
      </trkpt>
      <trkpt lat="45.72875" lon="5.79713">
        <ele>407.66</ele>
        <time>2022-04-27T10:17:33.260Z</time>
      </trkpt>
      <trkpt lat="45.72869" lon="5.79681">
        <ele>406.13</ele>
        <time>2022-04-27T10:17:53.081Z</time>
      </trkpt>
      <trkpt lat="45.72862" lon="5.7965">
        <ele>409.73</ele>
        <time>2022-04-27T10:18:27.359Z</time>
      </trkpt>
      <trkpt lat="45.7286" lon="5.79618">
        <ele>410.2</ele>
        <time>2022-04-27T10:18:48.862Z</time>
      </trkpt>
      <trkpt lat="45.72866" lon="5.79586">
        <ele>409.66</ele>
        <time>2022-04-27T10:19:10.314Z</time>
      </trkpt>
      <trkpt lat="45.72869" lon="5.79554">
        <ele>408.76</ele>
        <time>2022-04-27T10:19:32.354Z</time>
      </trkpt>
      <trkpt lat="45.72871" lon="5.79521">
        <ele>407.14</ele>
        <time>2022-04-27T10:19:54.779Z</time>
      </trkpt>
      <trkpt lat="45.72872" lon="5.79489">
        <ele>409.37</ele>
        <time>2022-04-27T10:20:17.280Z</time>
      </trkpt>
      <trkpt lat="45.72872" lon="5.79456">
        <ele>410.37</ele>
        <time>2022-04-27T10:20:39.915Z</time>
      </trkpt>
      <trkpt lat="45.72871" lon="5.79423">
        <ele>411.69</ele>
        <time>2022-04-27T10:21:04.000Z</time>
      </trkpt>
      <trkpt lat="45.72872" lon="5.79391">
        <ele>411.18</ele>
        <time>2022-04-27T10:21:26.000Z</time>
      </trkpt>
      <trkpt lat="45.72875" lon="5.79358">
        <ele>412.14</ele>
        <time>2022-04-27T10:22:56.056Z</time>
      </trkpt>
      <trkpt lat="45.72879" lon="5.79326">
        <ele>411.76</ele>
        <time>2022-04-27T10:23:14.858Z</time>
      </trkpt>
      <trkpt lat="45.72885" lon="5.79295">
        <ele>410.01</ele>
        <time>2022-04-27T10:23:34.295Z</time>
      </trkpt>
      <trkpt lat="45.72894" lon="5.79265">
        <ele>410.72</ele>
        <time>2022-04-27T10:23:55.220Z</time>
      </trkpt>
      <trkpt lat="45.72902" lon="5.79235">
        <ele>410.48</ele>
        <time>2022-04-27T10:24:14.800Z</time>
      </trkpt>
      <trkpt lat="45.72909" lon="5.79204">
        <ele>409</ele>
        <time>2022-04-27T10:24:34.000Z</time>
      </trkpt>
      <trkpt lat="45.72918" lon="5.79172">
        <ele>408.49</ele>
        <time>2022-04-27T10:24:54.018Z</time>
      </trkpt>
      <trkpt lat="45.72932" lon="5.79145">
        <ele>408.27</ele>
        <time>2022-04-27T10:25:15.003Z</time>
      </trkpt>
      <trkpt lat="45.72946" lon="5.79118">
        <ele>407.69</ele>
        <time>2022-04-27T10:25:34.976Z</time>
      </trkpt>
      <trkpt lat="45.72955" lon="5.79087">
        <ele>406.65</ele>
        <time>2022-04-27T10:25:54.000Z</time>
      </trkpt>
      <trkpt lat="45.72959" lon="5.79055">
        <ele>405.02</ele>
        <time>2022-04-27T10:26:14.520Z</time>
      </trkpt>
      <trkpt lat="45.72967" lon="5.79024">
        <ele>404.27</ele>
        <time>2022-04-27T10:26:34.000Z</time>
      </trkpt>
      <trkpt lat="45.7297" lon="5.78992">
        <ele>404.52</ele>
        <time>2022-04-27T10:26:56.879Z</time>
      </trkpt>
      <trkpt lat="45.72971" lon="5.7896">
        <ele>407.92</ele>
        <time>2022-04-27T10:27:24.260Z</time>
      </trkpt>
      <trkpt lat="45.72962" lon="5.78929">
        <ele>409.24</ele>
        <time>2022-04-27T10:27:52.380Z</time>
      </trkpt>
      <trkpt lat="45.72962" lon="5.78897">
        <ele>412.22</ele>
        <time>2022-04-27T10:28:20.000Z</time>
      </trkpt>
      <trkpt lat="45.72963" lon="5.78863">
        <ele>415.23</ele>
        <time>2022-04-27T10:28:50.000Z</time>
      </trkpt>
      <trkpt lat="45.72962" lon="5.78831">
        <ele>418.78</ele>
        <time>2022-04-27T10:29:16.994Z</time>
      </trkpt>
      <trkpt lat="45.72963" lon="5.78798">
        <ele>423.67</ele>
        <time>2022-04-27T10:29:45.959Z</time>
      </trkpt>
      <trkpt lat="45.72964" lon="5.78765">
        <ele>430.49</ele>
        <time>2022-04-27T10:30:06.356Z</time>
      </trkpt>
      <trkpt lat="45.72952" lon="5.78736">
        <ele>431.48</ele>
        <time>2022-04-27T10:30:37.000Z</time>
      </trkpt>
      <trkpt lat="45.7293" lon="5.78732">
        <ele>433.53</ele>
        <time>2022-04-27T10:31:25.155Z</time>
      </trkpt>
      <trkpt lat="45.72909" lon="5.78718">
        <ele>436.55</ele>
        <time>2022-04-27T10:33:04.219Z</time>
      </trkpt>
      <trkpt lat="45.7291" lon="5.78683">
        <ele>439.93</ele>
        <time>2022-04-27T10:33:31.351Z</time>
      </trkpt>
      <trkpt lat="45.72888" lon="5.78688">
        <ele>446.32</ele>
        <time>2022-04-27T10:34:46.915Z</time>
      </trkpt>
      <trkpt lat="45.72879" lon="5.78657">
        <ele>442.75</ele>
        <time>2022-04-27T10:35:12.000Z</time>
      </trkpt>
      <trkpt lat="45.72901" lon="5.78666">
        <ele>443.01</ele>
        <time>2022-04-27T10:37:37.734Z</time>
      </trkpt>
      <trkpt lat="45.72898" lon="5.78633">
        <ele>435.73</ele>
        <time>2022-04-27T11:41:27.798Z</time>
      </trkpt>
      <trkpt lat="45.72908" lon="5.78603">
        <ele>435.93</ele>
        <time>2022-04-27T11:41:48.860Z</time>
      </trkpt>
      <trkpt lat="45.72926" lon="5.78583">
        <ele>434.41</ele>
        <time>2022-04-27T11:42:08.541Z</time>
      </trkpt>
      <trkpt lat="45.72934" lon="5.78552">
        <ele>437.37</ele>
        <time>2022-04-27T11:42:38.261Z</time>
      </trkpt>
      <trkpt lat="45.72956" lon="5.78543">
        <ele>439.81</ele>
        <time>2022-04-27T11:43:03.000Z</time>
      </trkpt>
      <trkpt lat="45.72976" lon="5.78526">
        <ele>438.74</ele>
        <time>2022-04-27T11:43:27.053Z</time>
      </trkpt>
      <trkpt lat="45.72996" lon="5.78509">
        <ele>438.86</ele>
        <time>2022-04-27T11:43:46.061Z</time>
      </trkpt>
      <trkpt lat="45.73012" lon="5.78486">
        <ele>437.02</ele>
        <time>2022-04-27T11:44:13.291Z</time>
      </trkpt>
      <trkpt lat="45.73035" lon="5.78479">
        <ele>438.51</ele>
        <time>2022-04-27T11:44:34.893Z</time>
      </trkpt>
      <trkpt lat="45.73057" lon="5.78474">
        <ele>438.14</ele>
        <time>2022-04-27T11:45:06.055Z</time>
      </trkpt>
      <trkpt lat="45.7308" lon="5.78472">
        <ele>432.31</ele>
        <time>2022-04-27T11:45:45.018Z</time>
      </trkpt>
      <trkpt lat="45.73103" lon="5.78472">
        <ele>428.62</ele>
        <time>2022-04-27T11:46:25.518Z</time>
      </trkpt>
      <trkpt lat="45.73125" lon="5.78474">
        <ele>423.5</ele>
        <time>2022-04-27T11:46:59.253Z</time>
      </trkpt>
      <trkpt lat="45.73147" lon="5.78463">
        <ele>416.66</ele>
        <time>2022-04-27T11:47:28.041Z</time>
      </trkpt>
      <trkpt lat="45.73166" lon="5.78481">
        <ele>410.65</ele>
        <time>2022-04-27T11:48:30.718Z</time>
      </trkpt>
      <trkpt lat="45.73172" lon="5.78513">
        <ele>403.93</ele>
        <time>2022-04-27T11:48:59.878Z</time>
      </trkpt>
      <trkpt lat="45.7318" lon="5.7848">
        <ele>403.97</ele>
        <time>2022-04-27T11:49:25.918Z</time>
      </trkpt>
      <trkpt lat="45.73195" lon="5.78455">
        <ele>402.9</ele>
        <time>2022-04-27T11:49:57.578Z</time>
      </trkpt>
      <trkpt lat="45.73205" lon="5.78426">
        <ele>387.69</ele>
        <time>2022-04-27T11:52:03.898Z</time>
      </trkpt>
      <trkpt lat="45.73226" lon="5.78436">
        <ele>383.76</ele>
        <time>2022-04-27T11:52:57.040Z</time>
      </trkpt>
      <trkpt lat="45.73249" lon="5.78441">
        <ele>381.29</ele>
        <time>2022-04-27T11:53:32.236Z</time>
      </trkpt>
      <trkpt lat="45.73264" lon="5.78417">
        <ele>367.43</ele>
        <time>2022-04-27T11:54:58.958Z</time>
      </trkpt>
      <trkpt lat="45.73241" lon="5.78417">
        <ele>354.91</ele>
        <time>2022-04-27T11:55:35.892Z</time>
      </trkpt>
      <trkpt lat="45.7323" lon="5.78388">
        <ele>358.45</ele>
        <time>2022-04-27T11:55:53.158Z</time>
      </trkpt>
      <trkpt lat="45.73253" lon="5.78382">
        <ele>362.08</ele>
        <time>2022-04-27T11:56:42.000Z</time>
      </trkpt>
      <trkpt lat="45.73247" lon="5.78351">
        <ele>344.02</ele>
        <time>2022-04-27T11:58:04.000Z</time>
      </trkpt>
      <trkpt lat="45.7327" lon="5.78352">
        <ele>336.81</ele>
        <time>2022-04-27T11:59:14.341Z</time>
      </trkpt>
      <trkpt lat="45.73288" lon="5.78332">
        <ele>319.4</ele>
        <time>2022-04-27T12:00:24.238Z</time>
      </trkpt>
      <trkpt lat="45.73307" lon="5.78314">
        <ele>316.58</ele>
        <time>2022-04-27T12:01:02.000Z</time>
      </trkpt>
      <trkpt lat="45.7329" lon="5.78292">
        <ele>300.31</ele>
        <time>2022-04-27T12:02:21.176Z</time>
      </trkpt>
      <trkpt lat="45.73274" lon="5.78268">
        <ele>303.72</ele>
        <time>2022-04-27T12:02:59.839Z</time>
      </trkpt>
      <trkpt lat="45.73296" lon="5.78257">
        <ele>283.59</ele>
        <time>2022-04-27T12:04:22.178Z</time>
      </trkpt>
      <trkpt lat="45.73314" lon="5.78237">
        <ele>288.44</ele>
        <time>2022-04-27T12:04:47.255Z</time>
      </trkpt>
      <trkpt lat="45.73336" lon="5.78235">
        <ele>280.33</ele>
        <time>2022-04-27T12:05:24.100Z</time>
      </trkpt>
      <trkpt lat="45.73356" lon="5.78217">
        <ele>277.42</ele>
        <time>2022-04-27T12:06:33.939Z</time>
      </trkpt>
      <trkpt lat="45.73367" lon="5.78189">
        <ele>235.06</ele>
        <time>2022-04-27T12:08:07.020Z</time>
      </trkpt>
      <trkpt lat="45.73347" lon="5.78172">
        <ele>253.83</ele>
        <time>2022-04-27T12:08:56.174Z</time>
      </trkpt>
      <trkpt lat="45.73325" lon="5.78183">
        <ele>235.06</ele>
        <time>2022-04-27T12:10:07.000Z</time>
      </trkpt>
      <trkpt lat="45.73305" lon="5.78196">
        <ele>235.06</ele>
        <time>2022-04-27T12:10:18.000Z</time>
      </trkpt>
      <trkpt lat="45.73284" lon="5.78182">
        <ele>251.25</ele>
        <time>2022-04-27T12:11:25.479Z</time>
      </trkpt>
      <trkpt lat="45.73261" lon="5.78186">
        <ele>249.72</ele>
        <time>2022-04-27T12:11:56.000Z</time>
      </trkpt>
      <trkpt lat="45.73241" lon="5.78172">
        <ele>252.87</ele>
        <time>2022-04-27T12:12:24.357Z</time>
      </trkpt>
      <trkpt lat="45.73229" lon="5.78144">
        <ele>249.42</ele>
        <time>2022-04-27T12:13:27.555Z</time>
      </trkpt>
      <trkpt lat="45.73212" lon="5.78123">
        <ele>248.58</ele>
        <time>2022-04-27T12:14:05.918Z</time>
      </trkpt>
      <trkpt lat="45.73191" lon="5.78111">
        <ele>239.66</ele>
        <time>2022-04-27T12:14:57.253Z</time>
      </trkpt>
      <trkpt lat="45.73168" lon="5.7812">
        <ele>233.92</ele>
        <time>2022-04-27T12:15:22.000Z</time>
      </trkpt>
      <trkpt lat="45.73145" lon="5.78113">
        <ele>233.35</ele>
        <time>2022-04-27T12:15:58.733Z</time>
      </trkpt>
      <trkpt lat="45.73122" lon="5.78112">
        <ele>232.06</ele>
        <time>2022-04-27T12:16:25.260Z</time>
      </trkpt>
      <trkpt lat="45.73101" lon="5.78102">
        <ele>232.03</ele>
        <time>2022-04-27T12:16:56.292Z</time>
      </trkpt>
      <trkpt lat="45.73079" lon="5.78092">
        <ele>233.59</ele>
        <time>2022-04-27T12:17:22.175Z</time>
      </trkpt>
      <trkpt lat="45.73055" lon="5.781">
        <ele>235.22</ele>
        <time>2022-04-27T12:17:49.000Z</time>
      </trkpt>
      <trkpt lat="45.73033" lon="5.7809">
        <ele>230.49</ele>
        <time>2022-04-27T12:18:23.000Z</time>
      </trkpt>
      <trkpt lat="45.73014" lon="5.78072">
        <ele>222.77</ele>
        <time>2022-04-27T12:19:21.800Z</time>
      </trkpt>
      <trkpt lat="45.72991" lon="5.78069">
        <ele>222.39</ele>
        <time>2022-04-27T12:19:43.349Z</time>
      </trkpt>
      <trkpt lat="45.7297" lon="5.78085">
        <ele>223.18</ele>
        <time>2022-04-27T12:20:07.274Z</time>
      </trkpt>
      <trkpt lat="45.72952" lon="5.78105">
        <ele>222.56</ele>
        <time>2022-04-27T12:20:27.056Z</time>
      </trkpt>
      <trkpt lat="45.72936" lon="5.78128">
        <ele>224.32</ele>
        <time>2022-04-27T12:20:47.000Z</time>
      </trkpt>
      <trkpt lat="45.72918" lon="5.78148">
        <ele>226.57</ele>
        <time>2022-04-27T12:21:09.196Z</time>
      </trkpt>
      <trkpt lat="45.72901" lon="5.78169">
        <ele>228.91</ele>
        <time>2022-04-27T12:21:30.072Z</time>
      </trkpt>
      <trkpt lat="45.72882" lon="5.78188">
        <ele>231.42</ele>
        <time>2022-04-27T12:21:59.280Z</time>
      </trkpt>
      <trkpt lat="45.72864" lon="5.78207">
        <ele>229.28</ele>
        <time>2022-04-27T12:22:19.917Z</time>
      </trkpt>
      <trkpt lat="45.72843" lon="5.78219">
        <ele>227.29</ele>
        <time>2022-04-27T12:22:43.000Z</time>
      </trkpt>
      <trkpt lat="45.72823" lon="5.78232">
        <ele>231.91</ele>
        <time>2022-04-27T12:23:04.939Z</time>
      </trkpt>
      <trkpt lat="45.72802" lon="5.78248">
        <ele>232.54</ele>
        <time>2022-04-27T12:23:24.961Z</time>
      </trkpt>
      <trkpt lat="45.7278" lon="5.78257">
        <ele>230.47</ele>
        <time>2022-04-27T12:23:45.655Z</time>
      </trkpt>
      <trkpt lat="45.72761" lon="5.78274">
        <ele>231.13</ele>
        <time>2022-04-27T12:27:33.619Z</time>
      </trkpt>
      <trkpt lat="45.7274" lon="5.78292">
        <ele>230.82</ele>
        <time>2022-04-27T12:27:55.055Z</time>
      </trkpt>
      <trkpt lat="45.72722" lon="5.78311">
        <ele>230.1</ele>
        <time>2022-04-27T12:28:14.712Z</time>
      </trkpt>
      <trkpt lat="45.727" lon="5.783">
        <ele>227.72</ele>
        <time>2022-04-27T12:28:42.240Z</time>
      </trkpt>
      <trkpt lat="45.7269" lon="5.7827">
        <ele>227.8</ele>
        <time>2022-04-27T12:29:02.917Z</time>
      </trkpt>
      <trkpt lat="45.72681" lon="5.7824">
        <ele>226.82</ele>
        <time>2022-04-27T12:29:20.758Z</time>
      </trkpt>
      <trkpt lat="45.72672" lon="5.7821">
        <ele>226.49</ele>
        <time>2022-04-27T12:29:39.000Z</time>
      </trkpt>
      <trkpt lat="45.72666" lon="5.78178">
        <ele>222.71</ele>
        <time>2022-04-27T12:29:58.355Z</time>
      </trkpt>
      <trkpt lat="45.7266" lon="5.78147">
        <ele>221.56</ele>
        <time>2022-04-27T12:30:17.353Z</time>
      </trkpt>
      <trkpt lat="45.72658" lon="5.78114">
        <ele>220.74</ele>
        <time>2022-04-27T12:30:37.778Z</time>
      </trkpt>
      <trkpt lat="45.72655" lon="5.78082">
        <ele>219.08</ele>
        <time>2022-04-27T12:30:55.898Z</time>
      </trkpt>
      <trkpt lat="45.72651" lon="5.78048">
        <ele>219.53</ele>
        <time>2022-04-27T12:31:15.000Z</time>
      </trkpt>
      <trkpt lat="45.72649" lon="5.78014">
        <ele>220.05</ele>
        <time>2022-04-27T12:31:35.877Z</time>
      </trkpt>
      <trkpt lat="45.72651" lon="5.77981">
        <ele>220.88</ele>
        <time>2022-04-27T12:34:07.936Z</time>
      </trkpt>
      <trkpt lat="45.72652" lon="5.77949">
        <ele>221.65</ele>
        <time>2022-04-27T12:34:25.672Z</time>
      </trkpt>
      <trkpt lat="45.72655" lon="5.77917">
        <ele>222.18</ele>
        <time>2022-04-27T12:34:45.159Z</time>
      </trkpt>
      <trkpt lat="45.72644" lon="5.77888">
        <ele>224.65</ele>
        <time>2022-04-27T12:36:14.699Z</time>
      </trkpt>
      <trkpt lat="45.72622" lon="5.77873">
        <ele>223.43</ele>
        <time>2022-04-27T12:36:35.099Z</time>
      </trkpt>
      <trkpt lat="45.72601" lon="5.7786">
        <ele>223.28</ele>
        <time>2022-04-27T12:36:54.000Z</time>
      </trkpt>
      <trkpt lat="45.7258" lon="5.77846">
        <ele>223.07</ele>
        <time>2022-04-27T12:37:13.843Z</time>
      </trkpt>
      <trkpt lat="45.7256" lon="5.77832">
        <ele>223.23</ele>
        <time>2022-04-27T12:37:32.137Z</time>
      </trkpt>
      <trkpt lat="45.72541" lon="5.77813">
        <ele>222.62</ele>
        <time>2022-04-27T12:37:52.000Z</time>
      </trkpt>
      <trkpt lat="45.72525" lon="5.77791">
        <ele>222.43</ele>
        <time>2022-04-27T12:38:12.000Z</time>
      </trkpt>
      <trkpt lat="45.72509" lon="5.77767">
        <ele>223.49</ele>
        <time>2022-04-27T12:38:31.758Z</time>
      </trkpt>
      <trkpt lat="45.7249" lon="5.7775">
        <ele>223.14</ele>
        <time>2022-04-27T12:38:51.340Z</time>
      </trkpt>
      <trkpt lat="45.72471" lon="5.77732">
        <ele>223.14</ele>
        <time>2022-04-27T12:39:10.817Z</time>
      </trkpt>
      <trkpt lat="45.72452" lon="5.77714">
        <ele>226.3</ele>
        <time>2022-04-27T12:39:30.119Z</time>
      </trkpt>
      <trkpt lat="45.72444" lon="5.77683">
        <ele>223.86</ele>
        <time>2022-04-27T12:39:50.000Z</time>
      </trkpt>
      <trkpt lat="45.72439" lon="5.77651">
        <ele>222.18</ele>
        <time>2022-04-27T12:40:10.398Z</time>
      </trkpt>
      <trkpt lat="45.72436" lon="5.77619">
        <ele>222.97</ele>
        <time>2022-04-27T12:40:30.719Z</time>
      </trkpt>
      <trkpt lat="45.72434" lon="5.77587">
        <ele>223.17</ele>
        <time>2022-04-27T12:40:50.137Z</time>
      </trkpt>
      <trkpt lat="45.72428" lon="5.77556">
        <ele>223.9</ele>
        <time>2022-04-27T12:41:34.913Z</time>
      </trkpt>
      <trkpt lat="45.72408" lon="5.77542">
        <ele>226.92</ele>
        <time>2022-04-27T12:42:20.236Z</time>
      </trkpt>
      <trkpt lat="45.7239" lon="5.77521">
        <ele>229.41</ele>
        <time>2022-04-27T12:42:37.060Z</time>
      </trkpt>
      <trkpt lat="45.72373" lon="5.775">
        <ele>226.8</ele>
        <time>2022-04-27T12:42:58.861Z</time>
      </trkpt>
      <trkpt lat="45.72362" lon="5.77471">
        <ele>226.86</ele>
        <time>2022-04-27T12:43:16.933Z</time>
      </trkpt>
      <trkpt lat="45.7235" lon="5.77443">
        <ele>222.53</ele>
        <time>2022-04-27T12:43:39.254Z</time>
      </trkpt>
      <trkpt lat="45.72336" lon="5.77418">
        <ele>223.6</ele>
        <time>2022-04-27T12:44:00.920Z</time>
      </trkpt>
      <trkpt lat="45.72325" lon="5.7739">
        <ele>225.65</ele>
        <time>2022-04-27T12:44:20.762Z</time>
      </trkpt>
      <trkpt lat="45.72312" lon="5.77361">
        <ele>224.07</ele>
        <time>2022-04-27T12:44:41.101Z</time>
      </trkpt>
      <trkpt lat="45.723" lon="5.77332">
        <ele>231.82</ele>
        <time>2022-04-27T12:44:59.194Z</time>
      </trkpt>
      <trkpt lat="45.72289" lon="5.77302">
        <ele>233.41</ele>
        <time>2022-04-27T12:45:18.918Z</time>
      </trkpt>
      <trkpt lat="45.72277" lon="5.77275">
        <ele>233.71</ele>
        <time>2022-04-27T12:45:39.000Z</time>
      </trkpt>
      <trkpt lat="45.72263" lon="5.77249">
        <ele>237.74</ele>
        <time>2022-04-27T12:45:59.000Z</time>
      </trkpt>
      <trkpt lat="45.72249" lon="5.77222">
        <ele>231.7</ele>
        <time>2022-04-27T12:46:18.836Z</time>
      </trkpt>
      <trkpt lat="45.72236" lon="5.77196">
        <ele>234.02</ele>
        <time>2022-04-27T12:46:40.896Z</time>
      </trkpt>
      <trkpt lat="45.72223" lon="5.77168">
        <ele>232.78</ele>
        <time>2022-04-27T12:47:00.795Z</time>
      </trkpt>
      <trkpt lat="45.7221" lon="5.77142">
        <ele>235.36</ele>
        <time>2022-04-27T12:47:19.117Z</time>
      </trkpt>
      <trkpt lat="45.72197" lon="5.77114">
        <ele>238.43</ele>
        <time>2022-04-27T12:47:40.198Z</time>
      </trkpt>
      <trkpt lat="45.72183" lon="5.77087">
        <ele>235.19</ele>
        <time>2022-04-27T12:48:00.096Z</time>
      </trkpt>
      <trkpt lat="45.72177" lon="5.77054">
        <ele>229.84</ele>
        <time>2022-04-27T12:48:37.192Z</time>
      </trkpt>
      <trkpt lat="45.7217" lon="5.77022">
        <ele>229.33</ele>
        <time>2022-04-27T12:48:59.080Z</time>
      </trkpt>
      <trkpt lat="45.72164" lon="5.76991">
        <ele>230.13</ele>
        <time>2022-04-27T12:49:19.315Z</time>
      </trkpt>
      <trkpt lat="45.72149" lon="5.76967">
        <ele>223.78</ele>
        <time>2022-04-27T12:49:38.617Z</time>
      </trkpt>
      <trkpt lat="45.72142" lon="5.76936">
        <ele>223.29</ele>
        <time>2022-04-27T12:50:00.015Z</time>
      </trkpt>
      <trkpt lat="45.72131" lon="5.76907">
        <ele>221.35</ele>
        <time>2022-04-27T12:50:23.016Z</time>
      </trkpt>
      <trkpt lat="45.72118" lon="5.76878">
        <ele>218.1</ele>
        <time>2022-04-27T12:50:45.240Z</time>
      </trkpt>
      <trkpt lat="45.72103" lon="5.76854">
        <ele>216.59</ele>
        <time>2022-04-27T12:51:05.820Z</time>
      </trkpt>
      <trkpt lat="45.72086" lon="5.76831">
        <ele>216.73</ele>
        <time>2022-04-27T12:51:25.796Z</time>
      </trkpt>
      <trkpt lat="45.72067" lon="5.76811">
        <ele>219.77</ele>
        <time>2022-04-27T12:51:46.000Z</time>
      </trkpt>
      <trkpt lat="45.72049" lon="5.76791">
        <ele>224.92</ele>
        <time>2022-04-27T12:52:05.017Z</time>
      </trkpt>
      <trkpt lat="45.72033" lon="5.76769">
        <ele>224.59</ele>
        <time>2022-04-27T12:52:38.357Z</time>
      </trkpt>
      <trkpt lat="45.72019" lon="5.76742">
        <ele>227.31</ele>
        <time>2022-04-27T12:53:00.119Z</time>
      </trkpt>
      <trkpt lat="45.72001" lon="5.76722">
        <ele>224.36</ele>
        <time>2022-04-27T12:53:21.343Z</time>
      </trkpt>
      <trkpt lat="45.71989" lon="5.76695">
        <ele>227.36</ele>
        <time>2022-04-27T12:53:40.039Z</time>
      </trkpt>
      <trkpt lat="45.71972" lon="5.76672">
        <ele>226.06</ele>
        <time>2022-04-27T12:53:58.516Z</time>
      </trkpt>
      <trkpt lat="45.71951" lon="5.76658">
        <ele>229.72</ele>
        <time>2022-04-27T12:54:16.341Z</time>
      </trkpt>
      <trkpt lat="45.71936" lon="5.76634">
        <ele>230</ele>
        <time>2022-04-27T12:54:35.921Z</time>
      </trkpt>
      <trkpt lat="45.71919" lon="5.76611">
        <ele>230.19</ele>
        <time>2022-04-27T12:54:57.703Z</time>
      </trkpt>
      <trkpt lat="45.71896" lon="5.76613">
        <ele>230.58</ele>
        <time>2022-04-27T12:55:25.346Z</time>
      </trkpt>
      <trkpt lat="45.71875" lon="5.76603">
        <ele>230.05</ele>
        <time>2022-04-27T12:55:46.000Z</time>
      </trkpt>
      <trkpt lat="45.71852" lon="5.76596">
        <ele>229.82</ele>
        <time>2022-04-27T12:56:07.120Z</time>
      </trkpt>
      <trkpt lat="45.71834" lon="5.76577">
        <ele>228.07</ele>
        <time>2022-04-27T12:56:27.296Z</time>
      </trkpt>
      <trkpt lat="45.71821" lon="5.7655">
        <ele>223.47</ele>
        <time>2022-04-27T12:56:49.097Z</time>
      </trkpt>
      <trkpt lat="45.71798" lon="5.76541">
        <ele>221.7</ele>
        <time>2022-04-27T12:57:12.013Z</time>
      </trkpt>
      <trkpt lat="45.71782" lon="5.76519">
        <ele>221.13</ele>
        <time>2022-04-27T12:57:32.901Z</time>
      </trkpt>
      <trkpt lat="45.71767" lon="5.76493">
        <ele>222.96</ele>
        <time>2022-04-27T12:57:54.241Z</time>
      </trkpt>
      <trkpt lat="45.71758" lon="5.76463">
        <ele>221.31</ele>
        <time>2022-04-27T12:58:13.975Z</time>
      </trkpt>
      <trkpt lat="45.71744" lon="5.76436">
        <ele>222.41</ele>
        <time>2022-04-27T12:58:37.052Z</time>
      </trkpt>
      <trkpt lat="45.71732" lon="5.76408">
        <ele>223.89</ele>
        <time>2022-04-27T12:59:00.000Z</time>
      </trkpt>
      <trkpt lat="45.71724" lon="5.76378">
        <ele>223.92</ele>
        <time>2022-04-27T12:59:21.059Z</time>
      </trkpt>
      <trkpt lat="45.71717" lon="5.76346">
        <ele>224.86</ele>
        <time>2022-04-27T12:59:42.197Z</time>
      </trkpt>
      <trkpt lat="45.71703" lon="5.76319">
        <ele>226.12</ele>
        <time>2022-04-27T13:00:07.082Z</time>
      </trkpt>
      <trkpt lat="45.71685" lon="5.76301">
        <ele>226.38</ele>
        <time>2022-04-27T13:00:30.861Z</time>
      </trkpt>
      <trkpt lat="45.71668" lon="5.76278">
        <ele>225.19</ele>
        <time>2022-04-27T13:02:12.236Z</time>
      </trkpt>
      <trkpt lat="45.71653" lon="5.76254">
        <ele>228.7</ele>
        <time>2022-04-27T13:02:34.343Z</time>
      </trkpt>
      <trkpt lat="45.71634" lon="5.76231">
        <ele>229.34</ele>
        <time>2022-04-27T13:02:58.162Z</time>
      </trkpt>
      <trkpt lat="45.71614" lon="5.76217">
        <ele>230.88</ele>
        <time>2022-04-27T13:03:20.961Z</time>
      </trkpt>
      <trkpt lat="45.71593" lon="5.76203">
        <ele>229.31</ele>
        <time>2022-04-27T13:03:39.994Z</time>
      </trkpt>
      <trkpt lat="45.71574" lon="5.76185">
        <ele>232.96</ele>
        <time>2022-04-27T13:03:58.000Z</time>
      </trkpt>
      <trkpt lat="45.71558" lon="5.76163">
        <ele>226.93</ele>
        <time>2022-04-27T13:04:21.856Z</time>
      </trkpt>
      <trkpt lat="45.71538" lon="5.76146">
        <ele>230.1</ele>
        <time>2022-04-27T13:04:44.117Z</time>
      </trkpt>
      <trkpt lat="45.71518" lon="5.7613">
        <ele>231.07</ele>
        <time>2022-04-27T13:06:38.199Z</time>
      </trkpt>
      <trkpt lat="45.71501" lon="5.76109">
        <ele>228.14</ele>
        <time>2022-04-27T13:06:59.077Z</time>
      </trkpt>
      <trkpt lat="45.71484" lon="5.76085">
        <ele>231.17</ele>
        <time>2022-04-27T13:07:19.000Z</time>
      </trkpt>
      <trkpt lat="45.7147" lon="5.76058">
        <ele>226.69</ele>
        <time>2022-04-27T13:07:54.000Z</time>
      </trkpt>
      <trkpt lat="45.7145" lon="5.76043">
        <ele>226.69</ele>
        <time>2022-04-27T13:08:17.114Z</time>
      </trkpt>
      <trkpt lat="45.71428" lon="5.76036">
        <ele>221.45</ele>
        <time>2022-04-27T13:08:33.736Z</time>
      </trkpt>
      <trkpt lat="45.71409" lon="5.76017">
        <ele>222.98</ele>
        <time>2022-04-27T13:08:53.720Z</time>
      </trkpt>
      <trkpt lat="45.71386" lon="5.76008">
        <ele>233.52</ele>
        <time>2022-04-27T13:09:14.300Z</time>
      </trkpt>
      <trkpt lat="45.71363" lon="5.76004">
        <ele>225.02</ele>
        <time>2022-04-27T13:09:33.017Z</time>
      </trkpt>
      <trkpt lat="45.71341" lon="5.75995">
        <ele>221.89</ele>
        <time>2022-04-27T13:09:54.228Z</time>
      </trkpt>
      <trkpt lat="45.7132" lon="5.75984">
        <ele>224.5</ele>
        <time>2022-04-27T13:10:13.619Z</time>
      </trkpt>
      <trkpt lat="45.71297" lon="5.75986">
        <ele>226.99</ele>
        <time>2022-04-27T13:10:29.973Z</time>
      </trkpt>
      <trkpt lat="45.71274" lon="5.75981">
        <ele>226.15</ele>
        <time>2022-04-27T13:10:49.679Z</time>
      </trkpt>
      <trkpt lat="45.71251" lon="5.75987">
        <ele>225.82</ele>
        <time>2022-04-27T13:11:07.675Z</time>
      </trkpt>
      <trkpt lat="45.71229" lon="5.75989">
        <ele>222.42</ele>
        <time>2022-04-27T13:11:26.459Z</time>
      </trkpt>
      <trkpt lat="45.71206" lon="5.75998">
        <ele>221.93</ele>
        <time>2022-04-27T13:11:45.117Z</time>
      </trkpt>
      <trkpt lat="45.71184" lon="5.75994">
        <ele>226.35</ele>
        <time>2022-04-27T13:12:06.322Z</time>
      </trkpt>
      <trkpt lat="45.71167" lon="5.7597">
        <ele>227.24</ele>
        <time>2022-04-27T13:12:40.258Z</time>
      </trkpt>
      <trkpt lat="45.71147" lon="5.75955">
        <ele>225.79</ele>
        <time>2022-04-27T13:12:58.213Z</time>
      </trkpt>
      <trkpt lat="45.71128" lon="5.75936">
        <ele>221.68</ele>
        <time>2022-04-27T13:13:16.334Z</time>
      </trkpt>
      <trkpt lat="45.71108" lon="5.75918">
        <ele>223.88</ele>
        <time>2022-04-27T13:13:35.781Z</time>
      </trkpt>
      <trkpt lat="45.71089" lon="5.75901">
        <ele>224.36</ele>
        <time>2022-04-27T13:13:52.018Z</time>
      </trkpt>
      <trkpt lat="45.71071" lon="5.75883">
        <ele>225.19</ele>
        <time>2022-04-27T13:14:12.195Z</time>
      </trkpt>
      <trkpt lat="45.71052" lon="5.75863">
        <ele>223.15</ele>
        <time>2022-04-27T13:14:30.999Z</time>
      </trkpt>
      <trkpt lat="45.71032" lon="5.75849">
        <ele>224.6</ele>
        <time>2022-04-27T13:14:51.836Z</time>
      </trkpt>
      <trkpt lat="45.71013" lon="5.75831">
        <ele>223.34</ele>
        <time>2022-04-27T13:15:14.253Z</time>
      </trkpt>
      <trkpt lat="45.70995" lon="5.75808">
        <ele>223.7</ele>
        <time>2022-04-27T13:15:34.016Z</time>
      </trkpt>
      <trkpt lat="45.70975" lon="5.75793">
        <ele>224.36</ele>
        <time>2022-04-27T13:15:53.059Z</time>
      </trkpt>
      <trkpt lat="45.70956" lon="5.75775">
        <ele>226.97</ele>
        <time>2022-04-27T13:16:12.994Z</time>
      </trkpt>
      <trkpt lat="45.70938" lon="5.75754">
        <ele>230.92</ele>
        <time>2022-04-27T13:16:32.362Z</time>
      </trkpt>
      <trkpt lat="45.70915" lon="5.75744">
        <ele>232.14</ele>
        <time>2022-04-27T13:16:51.000Z</time>
      </trkpt>
      <trkpt lat="45.70893" lon="5.75733">
        <ele>233.57</ele>
        <time>2022-04-27T13:17:10.355Z</time>
      </trkpt>
      <trkpt lat="45.70871" lon="5.75733">
        <ele>227.23</ele>
        <time>2022-04-27T13:17:28.918Z</time>
      </trkpt>
      <trkpt lat="45.70852" lon="5.75712">
        <ele>226.62</ele>
        <time>2022-04-27T13:17:59.153Z</time>
      </trkpt>
      <trkpt lat="45.70833" lon="5.75694">
        <ele>222.12</ele>
        <time>2022-04-27T13:18:22.836Z</time>
      </trkpt>
      <trkpt lat="45.70813" lon="5.75678">
        <ele>220.98</ele>
        <time>2022-04-27T13:18:43.176Z</time>
      </trkpt>
      <trkpt lat="45.70791" lon="5.75667">
        <ele>222.37</ele>
        <time>2022-04-27T13:19:01.555Z</time>
      </trkpt>
      <trkpt lat="45.70771" lon="5.75651">
        <ele>224.19</ele>
        <time>2022-04-27T13:19:24.000Z</time>
      </trkpt>
      <trkpt lat="45.70752" lon="5.7563">
        <ele>226.8</ele>
        <time>2022-04-27T13:19:57.000Z</time>
      </trkpt>
      <trkpt lat="45.70734" lon="5.75611">
        <ele>227.8</ele>
        <time>2022-04-27T13:20:15.356Z</time>
      </trkpt>
      <trkpt lat="45.70715" lon="5.75591">
        <ele>230.19</ele>
        <time>2022-04-27T13:20:34.655Z</time>
      </trkpt>
      <trkpt lat="45.70697" lon="5.75573">
        <ele>230.77</ele>
        <time>2022-04-27T13:20:53.236Z</time>
      </trkpt>
      <trkpt lat="45.7068" lon="5.7555">
        <ele>225.99</ele>
        <time>2022-04-27T13:21:46.195Z</time>
      </trkpt>
      <trkpt lat="45.70662" lon="5.75528">
        <ele>219.66</ele>
        <time>2022-04-27T13:22:10.099Z</time>
      </trkpt>
      <trkpt lat="45.70641" lon="5.75537">
        <ele>219.63</ele>
        <time>2022-04-27T13:22:40.161Z</time>
      </trkpt>
      <trkpt lat="45.70629" lon="5.75564">
        <ele>229.46</ele>
        <time>2022-04-27T13:22:57.276Z</time>
      </trkpt>
      <trkpt lat="45.70605" lon="5.75559">
        <ele>230.18</ele>
        <time>2022-04-27T13:23:53.000Z</time>
      </trkpt>
      <trkpt lat="45.70586" lon="5.75576">
        <ele>228.83</ele>
        <time>2022-04-27T13:24:19.294Z</time>
      </trkpt>
      <trkpt lat="45.70573" lon="5.75602">
        <ele>226.19</ele>
        <time>2022-04-27T13:24:39.874Z</time>
      </trkpt>
      <trkpt lat="45.70561" lon="5.75631">
        <ele>228.83</ele>
        <time>2022-04-27T13:25:06.959Z</time>
      </trkpt>
      <trkpt lat="45.70548" lon="5.75658">
        <ele>228.73</ele>
        <time>2022-04-27T13:25:27.219Z</time>
      </trkpt>
      <trkpt lat="45.70534" lon="5.75684">
        <ele>228.73</ele>
        <time>2022-04-27T13:25:47.339Z</time>
      </trkpt>
      <trkpt lat="45.70518" lon="5.75708">
        <ele>229.63</ele>
        <time>2022-04-27T13:26:07.093Z</time>
      </trkpt>
      <trkpt lat="45.70504" lon="5.75682">
        <ele>229.63</ele>
        <time>2022-04-27T13:26:32.640Z</time>
      </trkpt>
      <trkpt lat="45.70487" lon="5.7566">
        <ele>231.13</ele>
        <time>2022-04-27T13:26:56.620Z</time>
      </trkpt>
      <trkpt lat="45.70472" lon="5.75684">
        <ele>231.42</ele>
        <time>2022-04-27T13:27:21.697Z</time>
      </trkpt>
      <trkpt lat="45.7047" lon="5.75716">
        <ele>229.93</ele>
        <time>2022-04-27T13:27:48.000Z</time>
      </trkpt>
      <trkpt lat="45.70448" lon="5.75704">
        <ele>232.9</ele>
        <time>2022-04-27T13:32:46.274Z</time>
      </trkpt>
      <trkpt lat="45.70426" lon="5.75694">
        <ele>232.43</ele>
        <time>2022-04-27T13:33:09.726Z</time>
      </trkpt>
      <trkpt lat="45.70419" lon="5.75726">
        <ele>232.43</ele>
        <time>2022-04-27T13:33:44.857Z</time>
      </trkpt>
      <trkpt lat="45.70411" lon="5.75756">
        <ele>232.91</ele>
        <time>2022-04-27T13:34:06.162Z</time>
      </trkpt>
      <trkpt lat="45.70407" lon="5.75788">
        <ele>233.23</ele>
        <time>2022-04-27T13:34:27.078Z</time>
      </trkpt>
      <trkpt lat="45.70394" lon="5.75814">
        <ele>233.23</ele>
        <time>2022-04-27T13:34:46.000Z</time>
      </trkpt>
      <trkpt lat="45.70375" lon="5.75834">
        <ele>233.22</ele>
        <time>2022-04-27T13:35:18.094Z</time>
      </trkpt>
      <trkpt lat="45.70373" lon="5.75866">
        <ele>233.32</ele>
        <time>2022-04-27T13:35:36.821Z</time>
      </trkpt>
      <trkpt lat="45.70367" lon="5.75898">
        <ele>233.32</ele>
        <time>2022-04-27T13:35:58.178Z</time>
      </trkpt>
      <trkpt lat="45.7036" lon="5.75929">
        <ele>233.22</ele>
        <time>2022-04-27T13:36:21.621Z</time>
      </trkpt>
      <trkpt lat="45.70357" lon="5.75961">
        <ele>232.62</ele>
        <time>2022-04-27T13:37:38.175Z</time>
      </trkpt>
      <trkpt lat="45.70348" lon="5.75991">
        <ele>232.02</ele>
        <time>2022-04-27T13:37:55.019Z</time>
      </trkpt>
      <trkpt lat="45.70352" lon="5.76023">
        <ele>231.95</ele>
        <time>2022-04-27T13:38:15.895Z</time>
      </trkpt>
      <trkpt lat="45.70352" lon="5.76056">
        <ele>232.12</ele>
        <time>2022-04-27T13:38:34.757Z</time>
      </trkpt>
      <trkpt lat="45.70352" lon="5.76089">
        <ele>232.02</ele>
        <time>2022-04-27T13:38:55.298Z</time>
      </trkpt>
      <trkpt lat="45.70351" lon="5.76056">
        <ele>232.02</ele>
        <time>2022-04-27T13:40:01.081Z</time>
      </trkpt>
      <trkpt lat="45.70349" lon="5.76024">
        <ele>232.12</ele>
        <time>2022-04-27T13:45:13.870Z</time>
      </trkpt>
      <trkpt lat="45.70345" lon="5.75991">
        <ele>232.02</ele>
        <time>2022-04-27T13:45:33.193Z</time>
      </trkpt>
      <trkpt lat="45.70353" lon="5.75961">
        <ele>233.17</ele>
        <time>2022-04-27T13:45:51.261Z</time>
      </trkpt>
      <trkpt lat="45.70355" lon="5.75928">
        <ele>233.22</ele>
        <time>2022-04-27T13:46:14.986Z</time>
      </trkpt>
      <trkpt lat="45.70362" lon="5.75896">
        <ele>233.12</ele>
        <time>2022-04-27T13:46:34.528Z</time>
      </trkpt>
      <trkpt lat="45.70372" lon="5.75867">
        <ele>233.22</ele>
        <time>2022-04-27T13:46:55.511Z</time>
      </trkpt>
      <trkpt lat="45.7038" lon="5.75836">
        <ele>233.23</ele>
        <time>2022-04-27T13:47:15.831Z</time>
      </trkpt>
      <trkpt lat="45.70383" lon="5.75804">
        <ele>233.13</ele>
        <time>2022-04-27T13:59:45.866Z</time>
      </trkpt>
      <trkpt lat="45.70361" lon="5.75796">
        <ele>233.33</ele>
        <time>2022-04-27T14:00:02.765Z</time>
      </trkpt>
      <trkpt lat="45.70339" lon="5.75786">
        <ele>233.72</ele>
        <time>2022-04-27T14:00:21.029Z</time>
      </trkpt>
      <trkpt lat="45.70318" lon="5.75772">
        <ele>234.32</ele>
        <time>2022-04-27T14:00:41.167Z</time>
      </trkpt>
      <trkpt lat="45.70296" lon="5.75765">
        <ele>235</ele>
        <time>2022-04-27T14:01:01.000Z</time>
      </trkpt>
      <trkpt lat="45.70277" lon="5.75747">
        <ele>234.52</ele>
        <time>2022-04-27T14:01:54.743Z</time>
      </trkpt>
      <trkpt lat="45.70255" lon="5.7574">
        <ele>235.12</ele>
        <time>2022-04-27T14:02:11.951Z</time>
      </trkpt>
      <trkpt lat="45.70235" lon="5.75722">
        <ele>235.42</ele>
        <time>2022-04-27T14:02:32.309Z</time>
      </trkpt>
      <trkpt lat="45.70215" lon="5.75705">
        <ele>236.5</ele>
        <time>2022-04-27T14:02:51.266Z</time>
      </trkpt>
      <trkpt lat="45.70194" lon="5.75691">
        <ele>236.92</ele>
        <time>2022-04-27T14:03:10.328Z</time>
      </trkpt>
      <trkpt lat="45.70174" lon="5.75676">
        <ele>236.72</ele>
        <time>2022-04-27T14:03:30.147Z</time>
      </trkpt>
      <trkpt lat="45.70153" lon="5.75665">
        <ele>237.92</ele>
        <time>2022-04-27T14:03:50.085Z</time>
      </trkpt>
      <trkpt lat="45.7013" lon="5.75663">
        <ele>237.92</ele>
        <time>2022-04-27T14:04:11.108Z</time>
      </trkpt>
      <trkpt lat="45.70107" lon="5.75668">
        <ele>238.42</ele>
        <time>2022-04-27T14:04:32.312Z</time>
      </trkpt>
      <trkpt lat="45.70084" lon="5.7567">
        <ele>239.02</ele>
        <time>2022-04-27T14:04:51.305Z</time>
      </trkpt>
      <trkpt lat="45.70061" lon="5.7567">
        <ele>239.42</ele>
        <time>2022-04-27T14:05:11.991Z</time>
      </trkpt>
      <trkpt lat="45.70038" lon="5.75672">
        <ele>239.72</ele>
        <time>2022-04-27T14:05:31.332Z</time>
      </trkpt>
      <trkpt lat="45.70014" lon="5.75675">
        <ele>239.72</ele>
        <time>2022-04-27T14:05:51.000Z</time>
      </trkpt>
      <trkpt lat="45.69992" lon="5.75673">
        <ele>239.72</ele>
        <time>2022-04-27T14:06:10.627Z</time>
      </trkpt>
      <trkpt lat="45.6997" lon="5.75666">
        <ele>240.42</ele>
        <time>2022-04-27T14:06:31.000Z</time>
      </trkpt>
      <trkpt lat="45.69948" lon="5.75657">
        <ele>241.62</ele>
        <time>2022-04-27T14:07:00.164Z</time>
      </trkpt>
      <trkpt lat="45.6993" lon="5.75635">
        <ele>240.92</ele>
        <time>2022-04-27T14:07:20.024Z</time>
      </trkpt>
      <trkpt lat="45.69913" lon="5.75614">
        <ele>240.92</ele>
        <time>2022-04-27T14:07:38.163Z</time>
      </trkpt>
      <trkpt lat="45.69896" lon="5.75592">
        <ele>240.92</ele>
        <time>2022-04-27T14:07:56.264Z</time>
      </trkpt>
      <trkpt lat="45.69879" lon="5.75569">
        <ele>241.61</ele>
        <time>2022-04-27T14:08:14.288Z</time>
      </trkpt>
      <trkpt lat="45.69865" lon="5.75543">
        <ele>241.62</ele>
        <time>2022-04-27T14:08:33.745Z</time>
      </trkpt>
      <trkpt lat="45.69849" lon="5.75519">
        <ele>242.31</ele>
        <time>2022-04-27T14:09:09.148Z</time>
      </trkpt>
      <trkpt lat="45.69833" lon="5.75497">
        <ele>242.32</ele>
        <time>2022-04-27T14:09:37.887Z</time>
      </trkpt>
      <trkpt lat="45.69815" lon="5.75475">
        <ele>243.93</ele>
        <time>2022-04-27T14:09:57.245Z</time>
      </trkpt>
      <trkpt lat="45.69796" lon="5.75459">
        <ele>243.51</ele>
        <time>2022-04-27T14:10:19.526Z</time>
      </trkpt>
      <trkpt lat="45.69778" lon="5.75438">
        <ele>242.86</ele>
        <time>2022-04-27T14:10:41.229Z</time>
      </trkpt>
      <trkpt lat="45.69758" lon="5.7542">
        <ele>240.89</ele>
        <time>2022-04-27T14:11:35.053Z</time>
      </trkpt>
      <trkpt lat="45.69739" lon="5.75402">
        <ele>241.29</ele>
        <time>2022-04-27T14:11:53.934Z</time>
      </trkpt>
      <trkpt lat="45.69719" lon="5.75386">
        <ele>240.83</ele>
        <time>2022-04-27T14:12:14.331Z</time>
      </trkpt>
      <trkpt lat="45.697" lon="5.75366">
        <ele>241.16</ele>
        <time>2022-04-27T14:12:35.209Z</time>
      </trkpt>
      <trkpt lat="45.6968" lon="5.75351">
        <ele>242.04</ele>
        <time>2022-04-27T14:12:55.799Z</time>
      </trkpt>
      <trkpt lat="45.6966" lon="5.75335">
        <ele>243.53</ele>
        <time>2022-04-27T14:13:15.782Z</time>
      </trkpt>
      <trkpt lat="45.6964" lon="5.7532">
        <ele>243.26</ele>
        <time>2022-04-27T14:13:35.710Z</time>
      </trkpt>
      <trkpt lat="45.69621" lon="5.75304">
        <ele>243.08</ele>
        <time>2022-04-27T14:13:55.829Z</time>
      </trkpt>
      <trkpt lat="45.69601" lon="5.75288">
        <ele>244.01</ele>
        <time>2022-04-27T14:14:15.910Z</time>
      </trkpt>
      <trkpt lat="45.69581" lon="5.75273">
        <ele>244.13</ele>
        <time>2022-04-27T14:14:35.798Z</time>
      </trkpt>
      <trkpt lat="45.69562" lon="5.75257">
        <ele>244.85</ele>
        <time>2022-04-27T14:14:55.591Z</time>
      </trkpt>
      <trkpt lat="45.69541" lon="5.75241">
        <ele>245.22</ele>
        <time>2022-04-27T14:15:14.288Z</time>
      </trkpt>
      <trkpt lat="45.69519" lon="5.75251">
        <ele>244.45</ele>
        <time>2022-04-27T14:15:36.051Z</time>
      </trkpt>
      <trkpt lat="45.69497" lon="5.7526">
        <ele>248.9</ele>
        <time>2022-04-27T14:15:56.036Z</time>
      </trkpt>
      <trkpt lat="45.69474" lon="5.75265">
        <ele>250.48</ele>
        <time>2022-04-27T14:16:16.174Z</time>
      </trkpt>
      <trkpt lat="45.69451" lon="5.75266">
        <ele>250.46</ele>
        <time>2022-04-27T14:16:35.831Z</time>
      </trkpt>
      <trkpt lat="45.69429" lon="5.75257">
        <ele>248.46</ele>
        <time>2022-04-27T14:16:54.836Z</time>
      </trkpt>
      <trkpt lat="45.69406" lon="5.75253">
        <ele>249.63</ele>
        <time>2022-04-27T14:17:14.811Z</time>
      </trkpt>
      <trkpt lat="45.69384" lon="5.75247">
        <ele>250.71</ele>
        <time>2022-04-27T14:17:39.358Z</time>
      </trkpt>
      <trkpt lat="45.69361" lon="5.75246">
        <ele>250.81</ele>
        <time>2022-04-27T14:17:57.028Z</time>
      </trkpt>
      <trkpt lat="45.69338" lon="5.75242">
        <ele>250.81</ele>
        <time>2022-04-27T14:18:18.291Z</time>
      </trkpt>
      <trkpt lat="45.69315" lon="5.75241">
        <ele>250.81</ele>
        <time>2022-04-27T14:18:39.555Z</time>
      </trkpt>
      <trkpt lat="45.69293" lon="5.75248">
        <ele>250.82</ele>
        <time>2022-04-27T14:19:01.000Z</time>
      </trkpt>
      <trkpt lat="45.69274" lon="5.75267">
        <ele>250.81</ele>
        <time>2022-04-27T14:19:22.048Z</time>
      </trkpt>
      <trkpt lat="45.69257" lon="5.75291">
        <ele>252.21</ele>
        <time>2022-04-27T14:19:44.214Z</time>
      </trkpt>
      <trkpt lat="45.69237" lon="5.75277">
        <ele>253.51</ele>
        <time>2022-04-27T14:20:29.227Z</time>
      </trkpt>
      <trkpt lat="45.69228" lon="5.75248">
        <ele>253.51</ele>
        <time>2022-04-27T14:20:49.289Z</time>
      </trkpt>
      <trkpt lat="45.69231" lon="5.75215">
        <ele>253.53</ele>
        <time>2022-04-27T14:21:07.092Z</time>
      </trkpt>
      <trkpt lat="45.69235" lon="5.75183">
        <ele>253.71</ele>
        <time>2022-04-27T14:21:25.308Z</time>
      </trkpt>
      <trkpt lat="45.69241" lon="5.75151">
        <ele>253.71</ele>
        <time>2022-04-27T14:21:44.996Z</time>
      </trkpt>
      <trkpt lat="45.69246" lon="5.75118">
        <ele>253.61</ele>
        <time>2022-04-27T14:22:52.310Z</time>
      </trkpt>
      <trkpt lat="45.69247" lon="5.75085">
        <ele>255.01</ele>
        <time>2022-04-27T14:23:13.034Z</time>
      </trkpt>
      <trkpt lat="45.69244" lon="5.75053">
        <ele>256.32</ele>
        <time>2022-04-27T14:23:33.913Z</time>
      </trkpt>
      <trkpt lat="45.69234" lon="5.75023">
        <ele>255.01</ele>
        <time>2022-04-27T14:23:55.993Z</time>
      </trkpt>
      <trkpt lat="45.69227" lon="5.74992">
        <ele>255.17</ele>
        <time>2022-04-27T14:24:19.214Z</time>
      </trkpt>
      <trkpt lat="45.69208" lon="5.74973">
        <ele>257.61</ele>
        <time>2022-04-27T14:25:22.000Z</time>
      </trkpt>
      <trkpt lat="45.6919" lon="5.74954">
        <ele>257.61</ele>
        <time>2022-04-27T14:25:41.910Z</time>
      </trkpt>
      <trkpt lat="45.69173" lon="5.74933">
        <ele>257.61</ele>
        <time>2022-04-27T14:26:02.154Z</time>
      </trkpt>
      <trkpt lat="45.69163" lon="5.74902">
        <ele>257.61</ele>
        <time>2022-04-27T14:26:23.000Z</time>
      </trkpt>
      <trkpt lat="45.69162" lon="5.7487">
        <ele>257.32</ele>
        <time>2022-04-27T14:26:42.911Z</time>
      </trkpt>
      <trkpt lat="45.69146" lon="5.74847">
        <ele>256.32</ele>
        <time>2022-04-27T14:27:03.895Z</time>
      </trkpt>
      <trkpt lat="45.69124" lon="5.74835">
        <ele>262.08</ele>
        <time>2022-04-27T14:27:27.156Z</time>
      </trkpt>
      <trkpt lat="45.69103" lon="5.74822">
        <ele>262.49</ele>
        <time>2022-04-27T14:27:52.000Z</time>
      </trkpt>
      <trkpt lat="45.69081" lon="5.74813">
        <ele>268.42</ele>
        <time>2022-04-27T14:28:17.876Z</time>
      </trkpt>
      <trkpt lat="45.69059" lon="5.74803">
        <ele>267.51</ele>
        <time>2022-04-27T14:28:39.014Z</time>
      </trkpt>
      <trkpt lat="45.69036" lon="5.74799">
        <ele>271.58</ele>
        <time>2022-04-27T14:29:03.236Z</time>
      </trkpt>
      <trkpt lat="45.69014" lon="5.74801">
        <ele>296.54</ele>
        <time>2022-04-27T14:29:29.994Z</time>
      </trkpt>
      <trkpt lat="45.68991" lon="5.74789">
        <ele>274.03</ele>
        <time>2022-04-27T14:29:53.352Z</time>
      </trkpt>
      <trkpt lat="45.68973" lon="5.7477">
        <ele>278.57</ele>
        <time>2022-04-27T14:30:15.000Z</time>
      </trkpt>
      <trkpt lat="45.68953" lon="5.74754">
        <ele>279.2</ele>
        <time>2022-04-27T14:30:43.071Z</time>
      </trkpt>
      <trkpt lat="45.68933" lon="5.74741">
        <ele>283.16</ele>
        <time>2022-04-27T14:31:08.197Z</time>
      </trkpt>
      <trkpt lat="45.68914" lon="5.74722">
        <ele>283.44</ele>
        <time>2022-04-27T14:31:32.255Z</time>
      </trkpt>
      <trkpt lat="45.68897" lon="5.74701">
        <ele>285.57</ele>
        <time>2022-04-27T14:31:55.795Z</time>
      </trkpt>
      <trkpt lat="45.68874" lon="5.74691">
        <ele>286.41</ele>
        <time>2022-04-27T14:32:20.000Z</time>
      </trkpt>
      <trkpt lat="45.68853" lon="5.7468">
        <ele>288.07</ele>
        <time>2022-04-27T14:32:44.151Z</time>
      </trkpt>
      <trkpt lat="45.68844" lon="5.74649">
        <ele>290.49</ele>
        <time>2022-04-27T14:33:45.172Z</time>
      </trkpt>
      <trkpt lat="45.68867" lon="5.74653">
        <ele>288.79</ele>
        <time>2022-04-27T14:34:06.807Z</time>
      </trkpt>
      <trkpt lat="45.6889" lon="5.74659">
        <ele>291.41</ele>
        <time>2022-04-27T14:34:29.000Z</time>
      </trkpt>
      <trkpt lat="45.68912" lon="5.74663">
        <ele>293.02</ele>
        <time>2022-04-27T14:35:07.588Z</time>
      </trkpt>
      <trkpt lat="45.68909" lon="5.74631">
        <ele>295.18</ele>
        <time>2022-04-27T14:35:36.075Z</time>
      </trkpt>
      <trkpt lat="45.68888" lon="5.7462">
        <ele>296.66</ele>
        <time>2022-04-27T14:35:57.896Z</time>
      </trkpt>
      <trkpt lat="45.68868" lon="5.74603">
        <ele>300.3</ele>
        <time>2022-04-27T14:36:19.000Z</time>
      </trkpt>
      <trkpt lat="45.68849" lon="5.74584">
        <ele>298.74</ele>
        <time>2022-04-27T14:36:42.294Z</time>
      </trkpt>
      <trkpt lat="45.68833" lon="5.74561">
        <ele>314.83</ele>
        <time>2022-04-27T14:37:07.112Z</time>
      </trkpt>
      <trkpt lat="45.68816" lon="5.7454">
        <ele>315.31</ele>
        <time>2022-04-27T14:37:28.135Z</time>
      </trkpt>
      <trkpt lat="45.68803" lon="5.74511">
        <ele>315.31</ele>
        <time>2022-04-27T14:37:51.212Z</time>
      </trkpt>
      <trkpt lat="45.6879" lon="5.74484">
        <ele>315.31</ele>
        <time>2022-04-27T14:38:18.798Z</time>
      </trkpt>
      <trkpt lat="45.68768" lon="5.74475">
        <ele>312.56</ele>
        <time>2022-04-27T14:38:45.934Z</time>
      </trkpt>
      <trkpt lat="45.68746" lon="5.74465">
        <ele>315.57</ele>
        <time>2022-04-27T14:39:10.000Z</time>
      </trkpt>
      <trkpt lat="45.68724" lon="5.74458">
        <ele>319.1</ele>
        <time>2022-04-27T14:39:37.996Z</time>
      </trkpt>
      <trkpt lat="45.68701" lon="5.74454">
        <ele>320.7</ele>
        <time>2022-04-27T14:40:06.032Z</time>
      </trkpt>
      <trkpt lat="45.68678" lon="5.74447">
        <ele>324.32</ele>
        <time>2022-04-27T14:41:06.851Z</time>
      </trkpt>
      <trkpt lat="45.68656" lon="5.74435">
        <ele>322</ele>
        <time>2022-04-27T14:41:32.000Z</time>
      </trkpt>
      <trkpt lat="45.68633" lon="5.74428">
        <ele>333.9</ele>
        <time>2022-04-27T14:41:58.355Z</time>
      </trkpt>
      <trkpt lat="45.68612" lon="5.74418">
        <ele>327.35</ele>
        <time>2022-04-27T14:42:21.572Z</time>
      </trkpt>
      <trkpt lat="45.68589" lon="5.74413">
        <ele>334.78</ele>
        <time>2022-04-27T14:42:56.112Z</time>
      </trkpt>
      <trkpt lat="45.68566" lon="5.74409">
        <ele>333.35</ele>
        <time>2022-04-27T14:43:20.670Z</time>
      </trkpt>
      <trkpt lat="45.68544" lon="5.74407">
        <ele>333.13</ele>
        <time>2022-04-27T14:43:44.594Z</time>
      </trkpt>
      <trkpt lat="45.6852" lon="5.7441">
        <ele>331.82</ele>
        <time>2022-04-27T14:44:07.894Z</time>
      </trkpt>
      <trkpt lat="45.68497" lon="5.74409">
        <ele>332.96</ele>
        <time>2022-04-27T14:44:30.971Z</time>
      </trkpt>
      <trkpt lat="45.68474" lon="5.74409">
        <ele>329.56</ele>
        <time>2022-04-27T14:44:53.051Z</time>
      </trkpt>
      <trkpt lat="45.68451" lon="5.74411">
        <ele>332.48</ele>
        <time>2022-04-27T14:45:15.629Z</time>
      </trkpt>
      <trkpt lat="45.68428" lon="5.74408">
        <ele>333.29</ele>
        <time>2022-04-27T14:46:25.211Z</time>
      </trkpt>
      <trkpt lat="45.68405" lon="5.744">
        <ele>329.33</ele>
        <time>2022-04-27T14:46:48.033Z</time>
      </trkpt>
      <trkpt lat="45.68382" lon="5.74393">
        <ele>327.78</ele>
        <time>2022-04-27T14:47:14.270Z</time>
      </trkpt>
      <trkpt lat="45.6836" lon="5.74378">
        <ele>328.37</ele>
        <time>2022-04-27T14:47:39.000Z</time>
      </trkpt>
      <trkpt lat="45.6834" lon="5.7436">
        <ele>327.36</ele>
        <time>2022-04-27T14:48:03.608Z</time>
      </trkpt>
      <trkpt lat="45.68318" lon="5.74354">
        <ele>329.6</ele>
        <time>2022-04-27T14:48:26.215Z</time>
      </trkpt>
      <trkpt lat="45.68301" lon="5.74331">
        <ele>333.36</ele>
        <time>2022-04-27T14:48:54.031Z</time>
      </trkpt>
      <trkpt lat="45.68285" lon="5.74308">
        <ele>333.06</ele>
        <time>2022-04-27T14:49:23.152Z</time>
      </trkpt>
      <trkpt lat="45.68268" lon="5.74284">
        <ele>337.44</ele>
        <time>2022-04-27T14:49:46.288Z</time>
      </trkpt>
      <trkpt lat="45.6825" lon="5.74264">
        <ele>336.21</ele>
        <time>2022-04-27T14:50:07.128Z</time>
      </trkpt>
      <trkpt lat="45.68234" lon="5.7424">
        <ele>343.83</ele>
        <time>2022-04-27T14:50:29.131Z</time>
      </trkpt>
      <trkpt lat="45.68217" lon="5.74217">
        <ele>340.4</ele>
        <time>2022-04-27T14:50:53.670Z</time>
      </trkpt>
      <trkpt lat="45.68201" lon="5.74194">
        <ele>340.25</ele>
        <time>2022-04-27T14:51:21.000Z</time>
      </trkpt>
      <trkpt lat="45.68187" lon="5.74167">
        <ele>344.6</ele>
        <time>2022-04-27T14:51:54.469Z</time>
      </trkpt>
      <trkpt lat="45.68174" lon="5.7414">
        <ele>341.79</ele>
        <time>2022-04-27T14:52:45.000Z</time>
      </trkpt>
      <trkpt lat="45.6816" lon="5.74116">
        <ele>338.25</ele>
        <time>2022-04-27T14:53:14.954Z</time>
      </trkpt>
      <trkpt lat="45.68137" lon="5.74117">
        <ele>345.42</ele>
        <time>2022-04-27T14:53:46.000Z</time>
      </trkpt>
      <trkpt lat="45.68119" lon="5.74097">
        <ele>344.63</ele>
        <time>2022-04-27T14:54:19.233Z</time>
      </trkpt>
      <trkpt lat="45.68104" lon="5.74071">
        <ele>347.05</ele>
        <time>2022-04-27T14:54:48.000Z</time>
      </trkpt>
      <trkpt lat="45.68083" lon="5.74062">
        <ele>353.8</ele>
        <time>2022-04-27T14:55:14.000Z</time>
      </trkpt>
      <trkpt lat="45.68061" lon="5.74055">
        <ele>358.07</ele>
        <time>2022-04-27T14:56:26.000Z</time>
      </trkpt>
      <trkpt lat="45.68044" lon="5.74033">
        <ele>376.5</ele>
        <time>2022-04-27T14:57:29.000Z</time>
      </trkpt>
      <trkpt lat="45.68026" lon="5.74012">
        <ele>370.53</ele>
        <time>2022-04-27T14:58:10.815Z</time>
      </trkpt>
      <trkpt lat="45.68005" lon="5.74001">
        <ele>365.78</ele>
        <time>2022-04-27T14:58:43.000Z</time>
      </trkpt>
      <trkpt lat="45.67982" lon="5.73991">
        <ele>367.14</ele>
        <time>2022-04-27T14:59:09.308Z</time>
      </trkpt>
      <trkpt lat="45.6796" lon="5.7398">
        <ele>373.38</ele>
        <time>2022-04-27T14:59:35.355Z</time>
      </trkpt>
      <trkpt lat="45.67938" lon="5.73974">
        <ele>380.88</ele>
        <time>2022-04-27T15:00:19.000Z</time>
      </trkpt>
      <trkpt lat="45.67916" lon="5.73966">
        <ele>384.54</ele>
        <time>2022-04-27T15:00:46.000Z</time>
      </trkpt>
      <trkpt lat="45.67895" lon="5.73951">
        <ele>392.15</ele>
        <time>2022-04-27T15:01:19.927Z</time>
      </trkpt>
      <trkpt lat="45.67877" lon="5.73932">
        <ele>393.76</ele>
        <time>2022-04-27T15:01:52.951Z</time>
      </trkpt>
      <trkpt lat="45.67867" lon="5.73902">
        <ele>404.45</ele>
        <time>2022-04-27T15:02:39.251Z</time>
      </trkpt>
      <trkpt lat="45.67865" lon="5.7387">
        <ele>404.49</ele>
        <time>2022-04-27T15:03:11.000Z</time>
      </trkpt>
      <trkpt lat="45.67853" lon="5.73842">
        <ele>405.62</ele>
        <time>2022-04-27T15:03:55.336Z</time>
      </trkpt>
      <trkpt lat="45.67831" lon="5.73834">
        <ele>404.02</ele>
        <time>2022-04-27T15:04:32.115Z</time>
      </trkpt>
      <trkpt lat="45.67818" lon="5.73807">
        <ele>403.91</ele>
        <time>2022-04-27T15:06:04.000Z</time>
      </trkpt>
      <trkpt lat="45.67806" lon="5.7378">
        <ele>411.18</ele>
        <time>2022-04-27T15:06:31.887Z</time>
      </trkpt>
      <trkpt lat="45.67788" lon="5.7376">
        <ele>418.67</ele>
        <time>2022-04-27T15:07:17.796Z</time>
      </trkpt>
      <trkpt lat="45.67775" lon="5.73733">
        <ele>416.64</ele>
        <time>2022-04-27T15:07:55.995Z</time>
      </trkpt>
      <trkpt lat="45.67756" lon="5.73715">
        <ele>424.38</ele>
        <time>2022-04-27T15:08:43.314Z</time>
      </trkpt>
      <trkpt lat="45.67758" lon="5.73682">
        <ele>425.01</ele>
        <time>2022-04-27T15:09:07.536Z</time>
      </trkpt>
      <trkpt lat="45.67756" lon="5.73649">
        <ele>423.72</ele>
        <time>2022-04-27T15:09:37.551Z</time>
      </trkpt>
      <trkpt lat="45.67747" lon="5.73619">
        <ele>425.84</ele>
        <time>2022-04-27T15:10:08.335Z</time>
      </trkpt>
      <trkpt lat="45.67726" lon="5.73608">
        <ele>429.64</ele>
        <time>2022-04-27T15:10:34.000Z</time>
      </trkpt>
      <trkpt lat="45.67704" lon="5.73599">
        <ele>432.54</ele>
        <time>2022-04-27T15:10:56.000Z</time>
      </trkpt>
      <trkpt lat="45.67683" lon="5.73587">
        <ele>429.82</ele>
        <time>2022-04-27T15:11:18.000Z</time>
      </trkpt>
      <trkpt lat="45.6766" lon="5.7358">
        <ele>427.97</ele>
        <time>2022-04-27T15:11:41.677Z</time>
      </trkpt>
      <trkpt lat="45.67639" lon="5.73567">
        <ele>429.94</ele>
        <time>2022-04-27T15:12:04.167Z</time>
      </trkpt>
      <trkpt lat="45.67616" lon="5.73557">
        <ele>429.54</ele>
        <time>2022-04-27T15:12:29.197Z</time>
      </trkpt>
      <trkpt lat="45.67597" lon="5.7354">
        <ele>439.45</ele>
        <time>2022-04-27T15:12:50.035Z</time>
      </trkpt>
      <trkpt lat="45.67583" lon="5.73513">
        <ele>439.48</ele>
        <time>2022-04-27T15:13:11.616Z</time>
      </trkpt>
      <trkpt lat="45.67571" lon="5.73486">
        <ele>439.48</ele>
        <time>2022-04-27T15:13:34.174Z</time>
      </trkpt>
      <trkpt lat="45.67553" lon="5.73466">
        <ele>439.48</ele>
        <time>2022-04-27T15:13:57.252Z</time>
      </trkpt>
      <trkpt lat="45.67534" lon="5.73446">
        <ele>439.48</ele>
        <time>2022-04-27T15:14:18.236Z</time>
      </trkpt>
      <trkpt lat="45.67514" lon="5.73431">
        <ele>439.48</ele>
        <time>2022-04-27T15:14:45.676Z</time>
      </trkpt>
      <trkpt lat="45.67495" lon="5.73412">
        <ele>439.48</ele>
        <time>2022-04-27T15:15:08.091Z</time>
      </trkpt>
      <trkpt lat="45.67478" lon="5.7339">
        <ele>439.48</ele>
        <time>2022-04-27T15:15:30.190Z</time>
      </trkpt>
      <trkpt lat="45.67465" lon="5.73363">
        <ele>439.48</ele>
        <time>2022-04-27T15:16:06.191Z</time>
      </trkpt>
      <trkpt lat="45.67471" lon="5.73332">
        <ele>428.66</ele>
        <time>2022-04-27T15:16:36.000Z</time>
      </trkpt>
      <trkpt lat="45.67487" lon="5.73309">
        <ele>439.48</ele>
        <time>2022-04-27T15:17:36.074Z</time>
      </trkpt>
      <trkpt lat="45.67506" lon="5.73293">
        <ele>439.4</ele>
        <time>2022-04-27T15:18:43.973Z</time>
      </trkpt>
      <trkpt lat="45.67526" lon="5.73275">
        <ele>439.48</ele>
        <time>2022-04-27T15:19:31.253Z</time>
      </trkpt>
      <trkpt lat="45.67527" lon="5.73242">
        <ele>439.49</ele>
        <time>2022-04-27T15:19:57.914Z</time>
      </trkpt>
      <trkpt lat="45.67508" lon="5.73224">
        <ele>449.14</ele>
        <time>2022-04-27T15:23:13.675Z</time>
      </trkpt>
      <trkpt lat="45.67486" lon="5.73216">
        <ele>449.6</ele>
        <time>2022-04-27T15:23:35.175Z</time>
      </trkpt>
      <trkpt lat="45.67464" lon="5.73211">
        <ele>452.16</ele>
        <time>2022-04-27T15:23:55.948Z</time>
      </trkpt>
      <trkpt lat="45.67442" lon="5.73199">
        <ele>455.27</ele>
        <time>2022-04-27T15:24:18.000Z</time>
      </trkpt>
      <trkpt lat="45.6742" lon="5.73193">
        <ele>454.97</ele>
        <time>2022-04-27T15:24:38.716Z</time>
      </trkpt>
      <trkpt lat="45.67397" lon="5.73186">
        <ele>455.42</ele>
        <time>2022-04-27T15:24:59.209Z</time>
      </trkpt>
      <trkpt lat="45.67377" lon="5.73173">
        <ele>457.35</ele>
        <time>2022-04-27T15:25:18.000Z</time>
      </trkpt>
      <trkpt lat="45.67358" lon="5.73155">
        <ele>458.67</ele>
        <time>2022-04-27T15:25:38.890Z</time>
      </trkpt>
      <trkpt lat="45.6734" lon="5.73135">
        <ele>459.71</ele>
        <time>2022-04-27T15:25:59.154Z</time>
      </trkpt>
      <trkpt lat="45.67321" lon="5.73116">
        <ele>462.92</ele>
        <time>2022-04-27T15:26:20.147Z</time>
      </trkpt>
      <trkpt lat="45.67298" lon="5.73117">
        <ele>467.57</ele>
        <time>2022-04-27T15:26:39.316Z</time>
      </trkpt>
      <trkpt lat="45.67278" lon="5.73129">
        <ele>466.92</ele>
        <time>2022-04-27T15:26:57.195Z</time>
      </trkpt>
      <trkpt lat="45.67255" lon="5.73136">
        <ele>465.5</ele>
        <time>2022-04-27T15:27:15.153Z</time>
      </trkpt>
      <trkpt lat="45.67232" lon="5.73132">
        <ele>465.06</ele>
        <time>2022-04-27T15:27:33.091Z</time>
      </trkpt>
      <trkpt lat="45.67209" lon="5.73131">
        <ele>466.28</ele>
        <time>2022-04-27T15:27:51.893Z</time>
      </trkpt>
      <trkpt lat="45.67186" lon="5.73136">
        <ele>466.98</ele>
        <time>2022-04-27T15:28:09.851Z</time>
      </trkpt>
      <trkpt lat="45.67164" lon="5.73124">
        <ele>464.45</ele>
        <time>2022-04-27T15:28:27.990Z</time>
      </trkpt>
      <trkpt lat="45.67147" lon="5.73101">
        <ele>463.76</ele>
        <time>2022-04-27T15:28:48.176Z</time>
      </trkpt>
      <trkpt lat="45.67142" lon="5.7309">
        <ele>471.98</ele>
        <time>2022-04-27T15:29:21.000Z</time>
      </trkpt>
    </trkseg>
  </trk>
</gpx>